Observation data for Junction on 01/13/2021      Previous  Date  Next       Current Mesonet Observations  Soil Data  Daily Summary Page  Observations in Plain Language
KJU1 130600Z 18003KT M02/M02 A303 RMK A01 T10161023  RH  095%=      5-min Rain = 0
KJU1 130601Z 18003KT M02/M02 A303 RMK A01 T10161023  RH  095%=      5-min Rain = 0
KJU1 130602Z 18003KT M02/M02 A303 RMK A01 T10171023  RH  095%=      5-min Rain = 0
KJU1 130603Z 19003KT M02/M02 A303 RMK A01 T10171024  RH  095%=      5-min Rain = 0
KJU1 130604Z 18003KT M02/M02 A303 RMK A01 T10171024  RH  095%=      5-min Rain = 0
KJU1 130605Z 18004KT M02/M02 A303 RMK A01 T10171024  RH  095%=      5-min Rain = 0
KJU1 130606Z 19003KT M02/M02 A303 RMK A01 T10171024  RH  095%=      5-min Rain = 0
KJU1 130607Z 19003KT M02/M02 A303 RMK A01 T10171024  RH  095%=      5-min Rain = 0
KJU1 130608Z 19003KT M02/M02 A303 RMK A01 T10171024  RH  095%=      5-min Rain = 0
KJU1 130609Z 19003KT M02/M03 A303 RMK A01 T10181025  RH  095%=      5-min Rain = 0
KJU1 130610Z 19003KT M02/M03 A303 RMK A01 T10181025  RH  095%=      5-min Rain = 0
KJU1 130611Z 19003KT M02/M03 A303 RMK A01 T10181025  RH  095%=      5-min Rain = 0
KJU1 130612Z 19003KT M02/M03 A303 RMK A01 T10181025  RH  095%=      5-min Rain = 0
KJU1 130613Z 19003KT M02/M03 A303 RMK A01 T10181025  RH  095%=      5-min Rain = 0
KJU1 130614Z 20002KT M02/M03 A303 RMK A01 T10191026  RH  095%=      5-min Rain = 0
KJU1 130615Z 19003KT M02/M03 A303 RMK A01 T10191026  RH  095%=      5-min Rain = 0
KJU1 130616Z 19003KT M02/M03 A303 RMK A01 T10191026  RH  095%=      5-min Rain = 0
KJU1 130617Z 20003KT M02/M03 A303 RMK A01 T10181025  RH  095%=      5-min Rain = 0
KJU1 130618Z 20003KT M02/M03 A303 RMK A01 T10181025  RH  095%=      5-min Rain = 0
KJU1 130619Z 20003KT M02/M02 A303 RMK A01 T10181024  RH  095%=      5-min Rain = 0
KJU1 130620Z 19003KT M02/M02 A303 RMK A01 T10171023  RH  095%=      5-min Rain = 0
KJU1 130621Z 19003KT M02/M02 A3029 RMK A01 T10171024  RH  095%=      5-min Rain = 0
KJU1 130622Z 19003KT M02/M02 A3029 RMK A01 T10171024  RH  095%=      5-min Rain = 0
KJU1 130623Z 19003KT M02/M02 A3029 RMK A01 T10171024  RH  095%=      5-min Rain = 0
KJU1 130624Z 19002KT M02/M02 A3029 RMK A01 T10171023  RH  095%=      5-min Rain = 0
KJU1 130625Z 20002KT M02/M02 A3029 RMK A01 T10171023  RH  095%=      5-min Rain = 0
KJU1 130626Z 20002KT M02/M02 A3029 RMK A01 T10171023  RH  095%=      5-min Rain = 0
KJU1 130627Z 20003KT M02/M02 A3029 RMK A01 T10171023  RH  095%=      5-min Rain = 0
KJU1 130628Z 20003KT M02/M02 A3029 RMK A01 T10171023  RH  095%=      5-min Rain = 0
KJU1 130629Z 20003KT M02/M02 A3029 RMK A01 T10171024  RH  095%=      5-min Rain = 0
KJU1 130630Z 20003KT M02/M02 A3029 RMK A01 T10171024  RH  095%=      5-min Rain = 0
KJU1 130631Z 21003KT M02/M03 A3029 RMK A01 T10181025  RH  095%=      5-min Rain = 0
KJU1 130632Z 20003KT M02/M03 A3029 RMK A01 T10181025  RH  095%=      5-min Rain = 0
KJU1 130633Z 21003KT M02/M03 A3029 RMK A01 T10181025  RH  095%=      5-min Rain = 0
KJU1 130634Z 20003KT M02/M03 A3029 RMK A01 T10181025  RH  095%=      5-min Rain = 0
KJU1 130635Z 20003KT M02/M02 A3029 RMK A01 T10181024  RH  095%=      5-min Rain = 0
KJU1 130636Z 21003KT M02/M02 A3029 RMK A01 T10171024  RH  095%=      5-min Rain = 0
KJU1 130637Z 20004KT M02/M02 A3029 RMK A01 T10171023  RH  095%=      5-min Rain = 0
KJU1 130638Z 20003KT M02/M02 A3029 RMK A01 T10171023  RH  095%=      5-min Rain = 0
KJU1 130639Z 20004KT M02/M02 A3029 RMK A01 T10171024  RH  095%=      5-min Rain = 0
KJU1 130640Z 20004KT M02/M03 A3029 RMK A01 T10171025  RH  095%=      5-min Rain = 0
KJU1 130641Z 20004KT M02/M03 A3029 RMK A01 T10181025  RH  095%=      5-min Rain = 0
KJU1 130642Z 20004KT M02/M03 A3029 RMK A01 T10181025  RH  095%=      5-min Rain = 0
KJU1 130643Z 19004KT M02/M03 A3029 RMK A01 T10181025  RH  095%=      5-min Rain = 0
KJU1 130644Z 19004KT M02/M03 A3029 RMK A01 T10181025  RH  095%=      5-min Rain = 0
KJU1 130645Z 20005KT M02/M03 A3029 RMK A01 T10181025  RH  095%=      5-min Rain = 0
KJU1 130646Z 19005KT M02/M03 A3029 RMK A01 T10181025  RH  095%=      5-min Rain = 0
KJU1 130647Z 19005KT M02/M03 A3029 RMK A01 T10181025  RH  095%=      5-min Rain = 0
KJU1 130648Z 19004KT M02/M03 A3029 RMK A01 T10181025  RH  095%=      5-min Rain = 0
KJU1 130649Z 19005KT M02/M03 A3029 RMK A01 T10181025  RH  095%=      5-min Rain = 0
KJU1 130650Z 19004KT M02/M03 A3029 RMK A01 T10181025  RH  095%=      5-min Rain = 0
KJU1 130651Z 19004KT M02/M03 A3029 RMK A01 T10181025  RH  095%=      5-min Rain = 0
KJU1 130652Z 19004KT M02/M03 A3029 RMK A01 T10181025  RH  095%=      5-min Rain = 0
KJU1 130653Z 19004KT M02/M03 A3029 RMK A01 T10191027  RH  095%=      5-min Rain = 0
KJU1 130654Z 19004KT M02/M03 A3029 RMK A01 T10201027  RH  095%=      5-min Rain = 0
KJU1 130655Z 19004KT M02/M03 A3029 RMK A01 T10201027  RH  095%=      5-min Rain = 0
KJU1 130656Z 19004KT M02/M03 A3029 RMK A01 T10201028  RH  095%=      5-min Rain = 0
KJU1 130657Z 18004KT M02/M03 A3029 RMK A01 T10201028  RH  095%=      5-min Rain = 0
KJU1 130658Z 18004KT M02/M03 A3029 RMK A01 T10201027  RH  095%=      5-min Rain = 0
KJU1 130659Z 18004KT M02/M03 A3029 RMK A01 T10201028  RH  095%=      5-min Rain = 0
KJU1 130700Z 18004KT M02/M03 A3029 RMK A01 T10211028  RH  095%=      5-min Rain = 0
KJU1 130701Z 18004KT M02/M03 A3029 RMK A01 T10201027  RH  095%=      5-min Rain = 0
KJU1 130702Z 18004KT M02/M03 A3029 RMK A01 T10201027  RH  095%=      5-min Rain = 0
KJU1 130703Z 18005KT M02/M03 A3029 RMK A01 T10201027  RH  095%=      5-min Rain = 0
KJU1 130704Z 18005KT M02/M03 A3029 RMK A01 T10201027  RH  095%=      5-min Rain = 0
KJU1 130705Z 19005KT M02/M03 A3029 RMK A01 T10201027  RH  095%=      5-min Rain = 0
KJU1 130706Z 19004KT M02/M03 A3029 RMK A01 T10201027  RH  095%=      5-min Rain = 0
KJU1 130707Z 19004KT M02/M03 A3029 RMK A01 T10201027  RH  095%=      5-min Rain = 0
KJU1 130708Z 19004KT M02/M03 A3029 RMK A01 T10201027  RH  095%=      5-min Rain = 0
KJU1 130709Z 19004KT M02/M03 A3029 RMK A01 T10201027  RH  095%=      5-min Rain = 0
KJU1 130710Z 19004KT M02/M03 A3029 RMK A01 T10201027  RH  095%=      5-min Rain = 0
KJU1 130711Z 19004KT M02/M03 A3029 RMK A01 T10201027  RH  095%=      5-min Rain = 0
KJU1 130712Z 19004KT M02/M03 A3029 RMK A01 T10201026  RH  095%=      5-min Rain = 0
KJU1 130713Z 19004KT M02/M03 A3029 RMK A01 T10191026  RH  095%=      5-min Rain = 0
KJU1 130714Z 19004KT M02/M03 A3029 RMK A01 T10191026  RH  095%=      5-min Rain = 0
KJU1 130715Z 20004KT M02/M03 A3029 RMK A01 T10191026  RH  095%=      5-min Rain = 0
KJU1 130716Z 19003KT M02/M03 A3029 RMK A01 T10191026  RH  095%=      5-min Rain = 0
KJU1 130717Z 19003KT M02/M03 A3029 RMK A01 T10191026  RH  095%=      5-min Rain = 0
KJU1 130718Z 19002KT M02/M03 A3029 RMK A01 T10191026  RH  095%=      5-min Rain = 0
KJU1 130719Z 19002KT M02/M03 A3029 RMK A01 T10191026  RH  095%=      5-min Rain = 0
KJU1 130720Z 18002KT M02/M03 A3029 RMK A01 T10191027  RH  095%=      5-min Rain = 0
KJU1 130721Z 18001KT M02/M03 A3029 RMK A01 T10201027  RH  095%=      5-min Rain = 0
KJU1 130722Z 19002KT M02/M03 A3029 RMK A01 T10211028  RH  095%=      5-min Rain = 0
KJU1 130723Z 19002KT M02/M03 A3029 RMK A01 T10211028  RH  095%=      5-min Rain = 0
KJU1 130724Z 19002KT M02/M03 A3029 RMK A01 T10211029  RH  095%=      5-min Rain = 0
KJU1 130725Z 19003KT M02/M03 A3029 RMK A01 T10211029  RH  095%=      5-min Rain = 0
KJU1 130726Z 19003KT M02/M03 A3029 RMK A01 T10201027  RH  095%=      5-min Rain = 0
KJU1 130727Z 19003KT M02/M03 A3029 RMK A01 T10201026  RH  095%=      5-min Rain = 0
KJU1 130728Z 18003KT M02/M03 A3029 RMK A01 T10191026  RH  095%=      5-min Rain = 0
KJU1 130729Z 18004KT M02/M03 A3029 RMK A01 T10181025  RH  095%=      5-min Rain = 0
KJU1 130730Z 19003KT M02/M03 A3028 RMK A01 T10181025  RH  095%=      5-min Rain = 0
KJU1 130731Z 19004KT M02/M03 A3028 RMK A01 T10181025  RH  095%=      5-min Rain = 0
KJU1 130732Z 19003KT M02/M03 A3028 RMK A01 T10181025  RH  095%=      5-min Rain = 0
KJU1 130733Z 19003KT M02/M03 A3028 RMK A01 T10191026  RH  095%=      5-min Rain = 0
KJU1 130734Z 19003KT M02/M03 A3028 RMK A01 T10191027  RH  095%=      5-min Rain = 0
KJU1 130735Z 19003KT M02/M03 A3028 RMK A01 T10191027  RH  095%=      5-min Rain = 0
KJU1 130736Z 19002KT M02/M03 A3028 RMK A01 T10191027  RH  095%=      5-min Rain = 0
KJU1 130737Z 18003KT M02/M03 A3028 RMK A01 T10191027  RH  095%=      5-min Rain = 0
KJU1 130738Z 19002KT M02/M03 A3028 RMK A01 T10191027  RH  095%=      5-min Rain = 0
KJU1 130739Z 19002KT M02/M03 A3028 RMK A01 T10201027  RH  095%=      5-min Rain = 0
KJU1 130740Z 20002KT M02/M03 A3028 RMK A01 T10201027  RH  095%=      5-min Rain = 0
KJU1 130741Z 20002KT M02/M03 A3028 RMK A01 T10201028  RH  095%=      5-min Rain = 0
KJU1 130742Z 20002KT M02/M03 A3028 RMK A01 T10201028  RH  095%=      5-min Rain = 0
KJU1 130743Z 19001KT M02/M03 A3028 RMK A01 T10211028  RH  095%=      5-min Rain = 0
KJU1 130744Z 20001KT M02/M03 A3028 RMK A01 T10201028  RH  095%=      5-min Rain = 0
KJU1 130745Z 00000KT M02/M03 A3028 RMK A01 T10211028  RH  095%=      5-min Rain = 0
KJU1 130746Z 00000KT M02/M03 A3028 RMK A01 T10211028  RH  095%=      5-min Rain = 0
KJU1 130747Z 00000KT M02/M03 A3028 RMK A01 T10211028  RH  095%=      5-min Rain = 0
KJU1 130748Z 00000KT M02/M03 A3028 RMK A01 T10201028  RH  095%=      5-min Rain = 0
KJU1 130749Z 19001KT M02/M03 A3028 RMK A01 T10201027  RH  095%=      5-min Rain = 0
KJU1 130750Z 19001KT M02/M03 A3028 RMK A01 T10201027  RH  095%=      5-min Rain = 0
KJU1 130751Z 19001KT M02/M03 A3028 RMK A01 T10201027  RH  095%=      5-min Rain = 0
KJU1 130752Z 19001KT M02/M03 A3028 RMK A01 T10201027  RH  095%=      5-min Rain = 0
KJU1 130753Z 19001KT M02/M03 A3028 RMK A01 T10201027  RH  095%=      5-min Rain = 0
KJU1 130754Z 20001KT M02/M03 A3028 RMK A01 T10211029  RH  094%=      5-min Rain = 0
KJU1 130755Z 20001KT M02/M03 A3028 RMK A01 T10221030  RH  094%=      5-min Rain = 0
KJU1 130756Z 20002KT M02/M03 A3028 RMK A01 T10221030  RH  094%=      5-min Rain = 0
KJU1 130757Z 19002KT M02/M03 A3028 RMK A01 T10221029  RH  095%=      5-min Rain = 0
KJU1 130758Z 18002KT M02/M03 A3028 RMK A01 T10221029  RH  095%=      5-min Rain = 0
KJU1 130759Z 18002KT M02/M03 A3028 RMK A01 T10211028  RH  095%=      5-min Rain = 0
KJU1 130800Z 18002KT M02/M03 A3028 RMK A01 T10211028  RH  095%=      5-min Rain = 0
KJU1 130801Z 18002KT M02/M03 A3028 RMK A01 T10211028  RH  095%=      5-min Rain = 0
KJU1 130802Z 18002KT M02/M03 A3028 RMK A01 T10221029  RH  095%=      5-min Rain = 0
KJU1 130803Z 19002KT M02/M03 A3028 RMK A01 T10231031  RH  094%=      5-min Rain = 0
KJU1 130804Z 20002KT M02/M03 A3028 RMK A01 T10241032  RH  094%=      5-min Rain = 0
KJU1 130805Z 20001KT M02/M03 A3028 RMK A01 T10241032  RH  095%=      5-min Rain = 0
KJU1 130806Z 20002KT M03/M03 A3028 RMK A01 T10251032  RH  095%=      5-min Rain = 0
KJU1 130807Z 19001KT M02/M03 A3028 RMK A01 T10241032  RH  095%=      5-min Rain = 0
KJU1 130808Z 19001KT M02/M03 A3028 RMK A01 T10241032  RH  095%=      5-min Rain = 0
KJU1 130809Z 20001KT M02/M03 A3028 RMK A01 T10241032  RH  095%=      5-min Rain = 0
KJU1 130810Z 20001KT M02/M03 A3028 RMK A01 T10241032  RH  095%=      5-min Rain = 0
KJU1 130811Z 20001KT M02/M03 A3028 RMK A01 T10241031  RH  095%=      5-min Rain = 0
KJU1 130812Z 20001KT M02/M03 A3028 RMK A01 T10241031  RH  095%=      5-min Rain = 0
KJU1 130813Z 19002KT M02/M03 A3028 RMK A01 T10241031  RH  095%=      5-min Rain = 0
KJU1 130814Z 19002KT M02/M03 A3028 RMK A01 T10241031  RH  095%=      5-min Rain = 0
KJU1 130815Z 18002KT M02/M03 A3028 RMK A01 T10241031  RH  095%=      5-min Rain = 0
KJU1 130816Z 18002KT M03/M03 A3028 RMK A01 T10251032  RH  095%=      5-min Rain = 0
KJU1 130817Z 17003KT M03/M03 A3028 RMK A01 T10251032  RH  095%=      5-min Rain = 0
KJU1 130818Z 18003KT M03/M03 A3028 RMK A01 T10251032  RH  095%=      5-min Rain = 0
KJU1 130819Z 18003KT M03/M03 A3027 RMK A01 T10251032  RH  095%=      5-min Rain = 0
KJU1 130820Z 17003KT M03/M03 A3027 RMK A01 T10261033  RH  095%=      5-min Rain = 0
KJU1 130821Z 17003KT M03/M03 A3027 RMK A01 T10271034  RH  095%=      5-min Rain = 0
KJU1 130822Z 17003KT M03/M04 A3027 RMK A01 T10281036  RH  094%=      5-min Rain = 0
KJU1 130823Z 17003KT M03/M04 A3027 RMK A01 T10301038  RH  094%=      5-min Rain = 0
KJU1 130824Z 17003KT M03/M04 A3027 RMK A01 T10331041  RH  094%=      5-min Rain = 0
KJU1 130825Z 17003KT M04/M04 A3027 RMK A01 T10351044  RH  094%=      5-min Rain = 0
KJU1 130826Z 17003KT M04/M05 A3027 RMK A01 T10371046  RH  094%=      5-min Rain = 0
KJU1 130827Z 17003KT M04/M05 A3027 RMK A01 T10391048  RH  093%=      5-min Rain = 0
KJU1 130828Z 18003KT M04/M05 A3027 RMK A01 T10391048  RH  094%=      5-min Rain = 0
KJU1 130829Z 18003KT M04/M05 A3027 RMK A01 T10391047  RH  094%=      5-min Rain = 0
KJU1 130830Z 18003KT M04/M05 A3027 RMK A01 T10391046  RH  094%=      5-min Rain = 0
KJU1 130831Z 19002KT M04/M04 A3027 RMK A01 T10371044  RH  095%=      5-min Rain = 0
KJU1 130832Z 20002KT M03/M04 A3028 RMK A01 T10341041  RH  095%=      5-min Rain = 0
KJU1 130833Z 21002KT M03/M04 A3028 RMK A01 T10321038  RH  096%=      5-min Rain = 0
KJU1 130834Z 21002KT M03/M04 A3028 RMK A01 T10311036  RH  096%=      5-min Rain = 0
KJU1 130835Z 22002KT M03/M04 A3027 RMK A01 T10301036  RH  096%=      5-min Rain = 0
KJU1 130836Z 23001KT M03/M04 A3027 RMK A01 T10291035  RH  096%=      5-min Rain = 0
KJU1 130837Z 23001KT M03/M04 A3027 RMK A01 T10291035  RH  096%=      5-min Rain = 0
KJU1 130838Z 24001KT M03/M04 A3027 RMK A01 T10291035  RH  096%=      5-min Rain = 0
KJU1 130839Z 24001KT M03/M04 A3028 RMK A01 T10301037  RH  095%=      5-min Rain = 0
KJU1 130840Z 24001KT M03/M04 A3028 RMK A01 T10321038  RH  095%=      5-min Rain = 0
KJU1 130841Z 24000KT M03/M04 A3028 RMK A01 T10321039  RH  095%=      5-min Rain = 0
KJU1 130842Z 25000KT M03/M04 A3028 RMK A01 T10331039  RH  095%=      5-min Rain = 0
KJU1 130843Z 25000KT M03/M04 A3028 RMK A01 T10331040  RH  095%=      5-min Rain = 0
KJU1 130844Z 26001KT M03/M04 A3028 RMK A01 T10341040  RH  095%=      5-min Rain = 0
KJU1 130845Z 26000KT M03/M04 A3028 RMK A01 T10341040  RH  095%=      5-min Rain = 0
KJU1 130846Z 00000KT M03/M04 A3028 RMK A01 T10341040  RH  095%=      5-min Rain = 0
KJU1 130847Z 00000KT M03/M04 A3028 RMK A01 T10341041  RH  095%=      5-min Rain = 0
KJU1 130848Z 00000KT M04/M04 A3028 RMK A01 T10351042  RH  095%=      5-min Rain = 0
KJU1 130849Z 00000KT M04/M04 A3028 RMK A01 T10351042  RH  095%=      5-min Rain = 0
KJU1 130850Z 00000KT M04/M04 A3028 RMK A01 T10351041  RH  095%=      5-min Rain = 0
KJU1 130851Z 00000KT M04/M04 A3028 RMK A01 T10351042  RH  095%=      5-min Rain = 0
KJU1 130852Z 00000KT M04/M04 A3028 RMK A01 T10351042  RH  095%=      5-min Rain = 0
KJU1 130853Z 00000KT M04/M04 A3028 RMK A01 T10351041  RH  095%=      5-min Rain = 0
KJU1 130854Z 00000KT M03/M04 A3028 RMK A01 T10341039  RH  096%=      5-min Rain = 0
KJU1 130855Z 00000KT M03/M04 A3028 RMK A01 T10331038  RH  096%=      5-min Rain = 0
KJU1 130856Z 00000KT M03/M04 A3028 RMK A01 T10341040  RH  095%=      5-min Rain = 0
KJU1 130857Z 00000KT M04/M04 A3028 RMK A01 T10361043  RH  095%=      5-min Rain = 0
KJU1 130858Z 00000KT M04/M05 A3028 RMK A01 T10381046  RH  095%=      5-min Rain = 0
KJU1 130859Z 00000KT M04/M05 A3028 RMK A01 T10411048  RH  095%=      5-min Rain = 0
KJU1 130900Z 19000KT M04/M05 A3028 RMK A01 T10411048  RH  095%=      5-min Rain = 0
KJU1 130901Z 17000KT M04/M05 A3028 RMK A01 T10411049  RH  095%=      5-min Rain = 0
KJU1 130902Z 18000KT M04/M05 A3028 RMK A01 T10421049  RH  095%=      5-min Rain = 0
KJU1 130903Z 00000KT M04/M05 A3028 RMK A01 T10421048  RH  095%=      5-min Rain = 0
KJU1 130904Z 00000KT M04/M05 A3028 RMK A01 T10421048  RH  095%=      5-min Rain = 0
KJU1 130905Z 00000KT M04/M05 A3028 RMK A01 T10421049  RH  095%=      5-min Rain = 0
KJU1 130906Z 18000KT M04/M05 A3028 RMK A01 T10421049  RH  095%=      5-min Rain = 0
KJU1 130907Z 18001KT M04/M05 A3028 RMK A01 T10421049  RH  095%=      5-min Rain = 0
KJU1 130908Z 18001KT M04/M05 A3028 RMK A01 T10431050  RH  095%=      5-min Rain = 0
KJU1 130909Z 18001KT M05/M05 A3028 RMK A01 T10451052  RH  095%=      5-min Rain = 0
KJU1 130910Z 19001KT M05/M05 A3028 RMK A01 T10461053  RH  095%=      5-min Rain = 0
KJU1 130911Z 19001KT M05/M05 A3028 RMK A01 T10461053  RH  095%=      5-min Rain = 0
KJU1 130912Z 19001KT M05/M05 A3028 RMK A01 T10461053  RH  095%=      5-min Rain = 0
KJU1 130913Z 19002KT M05/M05 A3028 RMK A01 T10461053  RH  095%=      5-min Rain = 0
KJU1 130914Z 18002KT M05/M05 A3028 RMK A01 T10461053  RH  095%=      5-min Rain = 0
KJU1 130915Z 18002KT M05/M05 A3028 RMK A01 T10471054  RH  095%=      5-min Rain = 0
KJU1 130916Z 18002KT M05/M05 A3028 RMK A01 T10471053  RH  095%=      5-min Rain = 0
KJU1 130917Z 18003KT M05/M05 A3028 RMK A01 T10461053  RH  095%=      5-min Rain = 0
KJU1 130918Z 18003KT M05/M05 A3028 RMK A01 T10461052  RH  095%=      5-min Rain = 0
KJU1 130919Z 18003KT M05/M05 A3028 RMK A01 T10451051  RH  096%=      5-min Rain = 0
KJU1 130920Z 18004KT M04/M05 A3028 RMK A01 T10441050  RH  096%=      5-min Rain = 0
KJU1 130921Z 19004KT M04/M05 A3028 RMK A01 T10441050  RH  096%=      5-min Rain = 0
KJU1 130922Z 19004KT M04/M05 A3028 RMK A01 T10431049  RH  096%=      5-min Rain = 0
KJU1 130923Z 18003KT M04/M05 A3028 RMK A01 T10421047  RH  096%=      5-min Rain = 0
KJU1 130924Z 18004KT M04/M05 A3028 RMK A01 T10401045  RH  096%=      5-min Rain = 0
KJU1 130925Z 18003KT M04/M04 A3028 RMK A01 T10381043  RH  096%=      5-min Rain = 0
KJU1 130926Z 18003KT M04/M04 A3028 RMK A01 T10381043  RH  096%=      5-min Rain = 0
KJU1 130927Z 19003KT M04/M05 A3028 RMK A01 T10391045  RH  096%=      5-min Rain = 0
KJU1 130928Z 19003KT M04/M05 A3028 RMK A01 T10401046  RH  096%=      5-min Rain = 0
KJU1 130929Z 19003KT M04/M05 A3028 RMK A01 T10411047  RH  096%=      5-min Rain = 0
KJU1 130930Z 19003KT M04/M05 A3028 RMK A01 T10411046  RH  096%=      5-min Rain = 0
KJU1 130931Z 20003KT M04/M05 A3028 RMK A01 T10401045  RH  096%=      5-min Rain = 0
KJU1 130932Z 20003KT M04/M04 A3028 RMK A01 T10381043  RH  096%=      5-min Rain = 0
KJU1 130933Z 20003KT M04/M04 A3028 RMK A01 T10371042  RH  096%=      5-min Rain = 0
KJU1 130934Z 20003KT M04/M04 A3028 RMK A01 T10361041  RH  096%=      5-min Rain = 0
KJU1 130935Z 20003KT M04/M04 A3028 RMK A01 T10361041  RH  096%=      5-min Rain = 0
KJU1 130936Z 20002KT M04/M04 A3028 RMK A01 T10361041  RH  096%=      5-min Rain = 0
KJU1 130937Z 20002KT M04/M04 A3028 RMK A01 T10361041  RH  096%=      5-min Rain = 0
KJU1 130938Z 20001KT M04/M04 A3028 RMK A01 T10361041  RH  096%=      5-min Rain = 0
KJU1 130939Z 19001KT M04/M04 A3028 RMK A01 T10371042  RH  096%=      5-min Rain = 0
KJU1 130940Z 18001KT M04/M04 A3028 RMK A01 T10371043  RH  096%=      5-min Rain = 0
KJU1 130941Z 18001KT M04/M04 A3028 RMK A01 T10371043  RH  096%=      5-min Rain = 0
KJU1 130942Z 18002KT M04/M04 A3028 RMK A01 T10371043  RH  096%=      5-min Rain = 0
KJU1 130943Z 18002KT M04/M04 A3028 RMK A01 T10381043  RH  096%=      5-min Rain = 0
KJU1 130944Z 18002KT M04/M04 A3028 RMK A01 T10381043  RH  096%=      5-min Rain = 0
KJU1 130945Z 18002KT M04/M04 A3028 RMK A01 T10381043  RH  096%=      5-min Rain = 0
KJU1 130946Z 18002KT M04/M04 A3028 RMK A01 T10381044  RH  096%=      5-min Rain = 0
KJU1 130947Z 18002KT M04/M05 A3028 RMK A01 T10401046  RH  096%=      5-min Rain = 0
KJU1 130948Z 18002KT M04/M05 A3028 RMK A01 T10411047  RH  096%=      5-min Rain = 0
KJU1 130949Z 18003KT M04/M05 A3027 RMK A01 T10411047  RH  096%=      5-min Rain = 0
KJU1 130950Z 18003KT M04/M05 A3027 RMK A01 T10421048  RH  096%=      5-min Rain = 0
KJU1 130951Z 18002KT M04/M05 A3027 RMK A01 T10421048  RH  096%=      5-min Rain = 0
KJU1 130952Z 18003KT M04/M05 A3027 RMK A01 T10421048  RH  096%=      5-min Rain = 0
KJU1 130953Z 18003KT M04/M05 A3027 RMK A01 T10421048  RH  096%=      5-min Rain = 0
KJU1 130954Z 18003KT M04/M05 A3027 RMK A01 T10431049  RH  096%=      5-min Rain = 0
KJU1 130955Z 18003KT M04/M05 A3027 RMK A01 T10431049  RH  096%=      5-min Rain = 0
KJU1 130956Z 19003KT M04/M05 A3027 RMK A01 T10431049  RH  096%=      5-min Rain = 0
KJU1 130957Z 19002KT M04/M05 A3027 RMK A01 T10421048  RH  096%=      5-min Rain = 0
KJU1 130958Z 19002KT M04/M05 A3027 RMK A01 T10421048  RH  096%=      5-min Rain = 0
KJU1 130959Z 19002KT M04/M05 A3027 RMK A01 T10421047  RH  096%=      5-min Rain = 0
KJU1 131000Z 20002KT M04/M05 A3027 RMK A01 T10421048  RH  096%=      5-min Rain = 0
KJU1 131001Z 20002KT M04/M05 A3027 RMK A01 T10431048  RH  096%=      5-min Rain = 0
KJU1 131002Z 20002KT M04/M05 A3027 RMK A01 T10431048  RH  096%=      5-min Rain = 0
KJU1 131003Z 21001KT M04/M05 A3027 RMK A01 T10431048  RH  096%=      5-min Rain = 0
KJU1 131004Z 21001KT M04/M05 A3027 RMK A01 T10421048  RH  096%=      5-min Rain = 0
KJU1 131005Z 22001KT M04/M05 A3027 RMK A01 T10421047  RH  096%=      5-min Rain = 0
KJU1 131006Z 22001KT M04/M05 A3027 RMK A01 T10411046  RH  096%=      5-min Rain = 0
KJU1 131007Z 22000KT M04/M05 A3027 RMK A01 T10401045  RH  096%=      5-min Rain = 0
KJU1 131008Z 22000KT M04/M05 A3027 RMK A01 T10401046  RH  096%=      5-min Rain = 0
KJU1 131009Z 22000KT M04/M05 A3027 RMK A01 T10411047  RH  096%=      5-min Rain = 0
KJU1 131010Z 22000KT M04/M05 A3027 RMK A01 T10421048  RH  096%=      5-min Rain = 0
KJU1 131011Z 00000KT M04/M05 A3027 RMK A01 T10431049  RH  096%=      5-min Rain = 0
KJU1 131012Z 22000KT M04/M05 A3027 RMK A01 T10441050  RH  095%=      5-min Rain = 0
KJU1 131013Z 22000KT M05/M05 A3027 RMK A01 T10451051  RH  095%=      5-min Rain = 0
KJU1 131014Z 20001KT M05/M05 A3027 RMK A01 T10461053  RH  095%=      5-min Rain = 0
KJU1 131015Z 19001KT M05/M05 A3027 RMK A01 T10461052  RH  096%=      5-min Rain = 0
KJU1 131016Z 18001KT M04/M05 A3027 RMK A01 T10441050  RH  096%=      5-min Rain = 0
KJU1 131017Z 18001KT M04/M05 A3027 RMK A01 T10441049  RH  096%=      5-min Rain = 0
KJU1 131018Z 18002KT M04/M05 A3027 RMK A01 T10441050  RH  096%=      5-min Rain = 0
KJU1 131019Z 18001KT M04/M05 A3027 RMK A01 T10441050  RH  096%=      5-min Rain = 0
KJU1 131020Z 18001KT M05/M05 A3027 RMK A01 T10451051  RH  096%=      5-min Rain = 0
KJU1 131021Z 18002KT M05/M05 A3026 RMK A01 T10461052  RH  096%=      5-min Rain = 0
KJU1 131022Z 18001KT M05/M05 A3026 RMK A01 T10471054  RH  095%=      5-min Rain = 0
KJU1 131023Z 18001KT M05/M05 A3026 RMK A01 T10481054  RH  095%=      5-min Rain = 0
KJU1 131024Z 18001KT M05/M06 A3026 RMK A01 T10491056  RH  095%=      5-min Rain = 0
KJU1 131025Z 18001KT M05/M06 A3026 RMK A01 T10501056  RH  095%=      5-min Rain = 0
KJU1 131026Z 18000KT M05/M06 A3026 RMK A01 T10501057  RH  095%=      5-min Rain = 0
KJU1 131027Z 00000KT M05/M06 A3026 RMK A01 T10501056  RH  095%=      5-min Rain = 0
KJU1 131028Z 00000KT M05/M06 A3027 RMK A01 T10501057  RH  095%=      5-min Rain = 0
KJU1 131029Z 00000KT M05/M06 A3027 RMK A01 T10511057  RH  096%=      5-min Rain = 0
KJU1 131030Z 00000KT M05/M06 A3027 RMK A01 T10501056  RH  096%=      5-min Rain = 0
KJU1 131031Z 00000KT M05/M05 A3027 RMK A01 T10491054  RH  096%=      5-min Rain = 0
KJU1 131032Z 00000KT M05/M05 A3027 RMK A01 T10471053  RH  096%=      5-min Rain = 0
KJU1 131033Z 00000KT M05/M05 A3027 RMK A01 T10471053  RH  096%=      5-min Rain = 0
KJU1 131034Z 00000KT M05/M05 A3027 RMK A01 T10471052  RH  096%=      5-min Rain = 0
KJU1 131035Z 00000KT M05/M05 A3027 RMK A01 T10471052  RH  096%=      5-min Rain = 0
KJU1 131036Z 00000KT M05/M05 A3027 RMK A01 T10481054  RH  096%=      5-min Rain = 0
KJU1 131037Z 00000KT M05/M06 A3027 RMK A01 T10491056  RH  095%=      5-min Rain = 0
KJU1 131038Z 18001KT M05/M06 A3027 RMK A01 T10501056  RH  095%=      5-min Rain = 0
KJU1 131039Z 18001KT M05/M06 A3027 RMK A01 T10521058  RH  095%=      5-min Rain = 0
KJU1 131040Z 18001KT M05/M06 A3027 RMK A01 T10511058  RH  096%=      5-min Rain = 0
KJU1 131041Z 18000KT M05/M06 A3027 RMK A01 T10501056  RH  096%=      5-min Rain = 0
KJU1 131042Z 00000KT M05/M06 A3027 RMK A01 T10491055  RH  096%=      5-min Rain = 0
KJU1 131043Z 00000KT M05/M05 A3027 RMK A01 T10491054  RH  096%=      5-min Rain = 0
KJU1 131044Z 00000KT M05/M05 A3027 RMK A01 T10491054  RH  096%=      5-min Rain = 0
KJU1 131045Z 00000KT M05/M05 A3027 RMK A01 T10491054  RH  096%=      5-min Rain = 0
KJU1 131046Z 00000KT M05/M05 A3027 RMK A01 T10491054  RH  096%=      5-min Rain = 0
KJU1 131047Z 00000KT M05/M06 A3027 RMK A01 T10491055  RH  096%=      5-min Rain = 0
KJU1 131048Z 00000KT M05/M06 A3027 RMK A01 T10501056  RH  096%=      5-min Rain = 0
KJU1 131049Z 00000KT M05/M06 A3027 RMK A01 T10511057  RH  096%=      5-min Rain = 0
KJU1 131050Z 00000KT M05/M06 A3027 RMK A01 T10521058  RH  096%=      5-min Rain = 0
KJU1 131051Z 00000KT M05/M06 A3027 RMK A01 T10521058  RH  096%=      5-min Rain = 0
KJU1 131052Z 00000KT M05/M06 A3027 RMK A01 T10521058  RH  096%=      5-min Rain = 0
KJU1 131053Z 00000KT M05/M06 A3027 RMK A01 T10521058  RH  096%=      5-min Rain = 0
KJU1 131054Z 00000KT M05/M06 A3027 RMK A01 T10521058  RH  096%=      5-min Rain = 0
KJU1 131055Z 00000KT M05/M06 A3027 RMK A01 T10521058  RH  096%=      5-min Rain = 0
KJU1 131056Z 00000KT M05/M06 A3027 RMK A01 T10531059  RH  096%=      5-min Rain = 0
KJU1 131057Z 00000KT M05/M06 A3027 RMK A01 T10531059  RH  096%=      5-min Rain = 0
KJU1 131058Z 00000KT M05/M06 A3027 RMK A01 T10531059  RH  096%=      5-min Rain = 0
KJU1 131059Z 00000KT M05/M06 A3027 RMK A01 T10541060  RH  095%=      5-min Rain = 0
KJU1 131100Z 00000KT M06/M06 A3027 RMK A01 T10551061  RH  095%=      5-min Rain = 0
KJU1 131101Z 00000KT M06/M06 A3027 RMK A01 T10561063  RH  095%=      5-min Rain = 0
KJU1 131102Z 00000KT M06/M06 A3027 RMK A01 T10571063  RH  095%=      5-min Rain = 0
KJU1 131103Z 00000KT M06/M06 A3027 RMK A01 T10581064  RH  095%=      5-min Rain = 0
KJU1 131104Z 00000KT M06/M07 A3027 RMK A01 T10581065  RH  095%=      5-min Rain = 0
KJU1 131105Z 00000KT M06/M07 A3027 RMK A01 T10591065  RH  095%=      5-min Rain = 0
KJU1 131106Z 00000KT M06/M06 A3027 RMK A01 T10581064  RH  095%=      5-min Rain = 0
KJU1 131107Z 00000KT M06/M06 A3027 RMK A01 T10561062  RH  096%=      5-min Rain = 0
KJU1 131108Z 00000KT M05/M06 A3027 RMK A01 T10541060  RH  096%=      5-min Rain = 0
KJU1 131109Z 00000KT M05/M06 A3027 RMK A01 T10541060  RH  096%=      5-min Rain = 0
KJU1 131110Z 00000KT M06/M06 A3027 RMK A01 T10571063  RH  095%=      5-min Rain = 0
KJU1 131111Z 00000KT M06/M07 A3027 RMK A01 T10591066  RH  095%=      5-min Rain = 0
KJU1 131112Z 18000KT M06/M07 A3027 RMK A01 T10601067  RH  095%=      5-min Rain = 0
KJU1 131113Z 18001KT M06/M07 A3027 RMK A01 T10591066  RH  095%=      5-min Rain = 0
KJU1 131114Z 17001KT M06/M06 A3027 RMK A01 T10571063  RH  096%=      5-min Rain = 0
KJU1 131115Z 16001KT M06/M06 A3027 RMK A01 T10561062  RH  096%=      5-min Rain = 0
KJU1 131116Z 16002KT M06/M06 A3027 RMK A01 T10551061  RH  096%=      5-min Rain = 0
KJU1 131117Z 17002KT M06/M06 A3027 RMK A01 T10551061  RH  096%=      5-min Rain = 0
KJU1 131118Z 17003KT M06/M06 A3027 RMK A01 T10561062  RH  096%=      5-min Rain = 0
KJU1 131119Z 17002KT M06/M06 A3027 RMK A01 T10571064  RH  095%=      5-min Rain = 0
KJU1 131120Z 17002KT M06/M07 A3027 RMK A01 T10581065  RH  095%=      5-min Rain = 0
KJU1 131121Z 17002KT M06/M07 A3027 RMK A01 T10581065  RH  095%=      5-min Rain = 0
KJU1 131122Z 17002KT M06/M07 A3027 RMK A01 T10581065  RH  095%=      5-min Rain = 0
KJU1 131123Z 17002KT M06/M07 A3027 RMK A01 T10581065  RH  095%=      5-min Rain = 0
KJU1 131124Z 18002KT M06/M07 A3027 RMK A01 T10591065  RH  095%=      5-min Rain = 0
KJU1 131125Z 18002KT M06/M07 A3027 RMK A01 T10591065  RH  095%=      5-min Rain = 0
KJU1 131126Z 18002KT M06/M07 A3027 RMK A01 T10591066  RH  095%=      5-min Rain = 0
KJU1 131127Z 18002KT M06/M07 A3027 RMK A01 T10591066  RH  095%=      5-min Rain = 0
KJU1 131128Z 18002KT M06/M06 A3027 RMK A01 T10581064  RH  095%=      5-min Rain = 0
KJU1 131129Z 18002KT M06/M06 A3026 RMK A01 T10571063  RH  096%=      5-min Rain = 0
KJU1 131130Z 18002KT M06/M06 A3026 RMK A01 T10571064  RH  095%=      5-min Rain = 0
KJU1 131131Z 17002KT M06/M06 A3026 RMK A01 T10581064  RH  095%=      5-min Rain = 0
KJU1 131132Z 16002KT M06/M06 A3026 RMK A01 T10581064  RH  095%=      5-min Rain = 0
KJU1 131133Z 16002KT M06/M06 A3026 RMK A01 T10581064  RH  095%=      5-min Rain = 0
KJU1 131134Z 16002KT M06/M06 A3026 RMK A01 T10581064  RH  095%=      5-min Rain = 0
KJU1 131135Z 17002KT M06/M07 A3026 RMK A01 T10591065  RH  095%=      5-min Rain = 0
KJU1 131136Z 17002KT M06/M07 A3026 RMK A01 T10591066  RH  095%=      5-min Rain = 0
KJU1 131137Z 16001KT M06/M07 A3026 RMK A01 T10601066  RH  095%=      5-min Rain = 0
KJU1 131138Z 16001KT M06/M07 A3026 RMK A01 T10611067  RH  095%=      5-min Rain = 0
KJU1 131139Z 17001KT M06/M07 A3026 RMK A01 T10611068  RH  095%=      5-min Rain = 0
KJU1 131140Z 17002KT M06/M07 A3026 RMK A01 T10621069  RH  095%=      5-min Rain = 0
KJU1 131141Z 18001KT M06/M07 A3026 RMK A01 T10621069  RH  095%=      5-min Rain = 0
KJU1 131142Z 18000KT M06/M07 A3026 RMK A01 T10621069  RH  095%=      5-min Rain = 0
KJU1 131143Z 00000KT M06/M07 A3026 RMK A01 T10621069  RH  095%=      5-min Rain = 0
KJU1 131144Z 00000KT M06/M07 A3026 RMK A01 T10611068  RH  095%=      5-min Rain = 0
KJU1 131145Z 00000KT M06/M07 A3026 RMK A01 T10611068  RH  095%=      5-min Rain = 0
KJU1 131146Z 00000KT M06/M07 A3026 RMK A01 T10611067  RH  095%=      5-min Rain = 0
KJU1 131147Z 24000KT M06/M07 A3026 RMK A01 T10601066  RH  095%=      5-min Rain = 0
KJU1 131148Z 24000KT M06/M07 A3026 RMK A01 T10601066  RH  095%=      5-min Rain = 0
KJU1 131149Z 24001KT M06/M07 A3026 RMK A01 T10601066  RH  095%=      5-min Rain = 0
KJU1 131150Z 24001KT M06/M07 A3026 RMK A01 T10611068  RH  095%=      5-min Rain = 0
KJU1 131151Z 24001KT M06/M07 A3026 RMK A01 T10641071  RH  095%=      5-min Rain = 0
KJU1 131152Z 24001KT M06/M07 A3026 RMK A01 T10641072  RH  095%=      5-min Rain = 0
KJU1 131153Z 23001KT M06/M07 A3026 RMK A01 T10631071  RH  095%=      5-min Rain = 0
KJU1 131154Z 23001KT M06/M07 A3026 RMK A01 T10621068  RH  095%=      5-min Rain = 0
KJU1 131155Z 21001KT M06/M07 A3026 RMK A01 T10611067  RH  095%=      5-min Rain = 0
KJU1 131156Z 20002KT M06/M07 A3026 RMK A01 T10591065  RH  096%=      5-min Rain = 0
KJU1 131157Z 19002KT M06/M06 A3026 RMK A01 T10571063  RH  096%=      5-min Rain = 0
KJU1 131158Z 19002KT M06/M06 A3026 RMK A01 T10561062  RH  096%=      5-min Rain = 0
KJU1 131159Z 19003KT M06/M06 A3026 RMK A01 T10561062  RH  096%=      5-min Rain = 0
KJU1 131200Z 19003KT M06/M06 A3026 RMK A01 T10571063  RH  095%=      5-min Rain = 0
KJU1 131201Z 18003KT M06/M07 A3026 RMK A01 T10591066  RH  095%=      5-min Rain = 0
KJU1 131202Z 18003KT M06/M07 A3026 RMK A01 T10601067  RH  095%=      5-min Rain = 0
KJU1 131203Z 18003KT M06/M07 A3026 RMK A01 T10591066  RH  095%=      5-min Rain = 0
KJU1 131204Z 19002KT M06/M07 A3026 RMK A01 T10581065  RH  095%=      5-min Rain = 0
KJU1 131205Z 20002KT M06/M06 A3026 RMK A01 T10571063  RH  095%=      5-min Rain = 0
KJU1 131206Z 20002KT M06/M06 A3026 RMK A01 T10551061  RH  096%=      5-min Rain = 0
KJU1 131207Z 20002KT M05/M06 A3026 RMK A01 T10531059  RH  096%=      5-min Rain = 0
KJU1 131208Z 20002KT M05/M06 A3026 RMK A01 T10521057  RH  096%=      5-min Rain = 0
KJU1 131209Z 20002KT M05/M06 A3026 RMK A01 T10511056  RH  096%=      5-min Rain = 0
KJU1 131210Z 20002KT M05/M06 A3026 RMK A01 T10511056  RH  096%=      5-min Rain = 0
KJU1 131211Z 20002KT M05/M06 A3026 RMK A01 T10501055  RH  096%=      5-min Rain = 0
KJU1 131212Z 20002KT M05/M05 A3026 RMK A01 T10491054  RH  096%=      5-min Rain = 0
KJU1 131213Z 20002KT M05/M05 A3026 RMK A01 T10481053  RH  096%=      5-min Rain = 0
KJU1 131214Z 20002KT M05/M05 A3026 RMK A01 T10481053  RH  096%=      5-min Rain = 0
KJU1 131215Z 20002KT M05/M05 A3026 RMK A01 T10481054  RH  096%=      5-min Rain = 0
KJU1 131216Z 19003KT M05/M06 A3026 RMK A01 T10491055  RH  096%=      5-min Rain = 0
KJU1 131217Z 20003KT M05/M06 A3026 RMK A01 T10491055  RH  096%=      5-min Rain = 0
KJU1 131218Z 20003KT M05/M05 A3026 RMK A01 T10491054  RH  096%=      5-min Rain = 0
KJU1 131219Z 20003KT M05/M05 A3026 RMK A01 T10481053  RH  096%=      5-min Rain = 0
KJU1 131220Z 21003KT M05/M05 A3025 RMK A01 T10461051  RH  096%=      5-min Rain = 0
KJU1 131221Z 21002KT M05/M05 A3025 RMK A01 T10451050  RH  096%=      5-min Rain = 0
KJU1 131222Z 21002KT M05/M05 A3025 RMK A01 T10461052  RH  096%=      5-min Rain = 0
KJU1 131223Z 21002KT M05/M06 A3025 RMK A01 T10491055  RH  096%=      5-min Rain = 0
KJU1 131224Z 21001KT M05/M06 A3026 RMK A01 T10501056  RH  096%=      5-min Rain = 0
KJU1 131225Z 21001KT M05/M06 A3026 RMK A01 T10501056  RH  096%=      5-min Rain = 0
KJU1 131226Z 21001KT M05/M06 A3026 RMK A01 T10511057  RH  095%=      5-min Rain = 0
KJU1 131227Z 21001KT M05/M06 A3026 RMK A01 T10511057  RH  096%=      5-min Rain = 0
KJU1 131228Z 21001KT M05/M06 A3026 RMK A01 T10511057  RH  096%=      5-min Rain = 0
KJU1 131229Z 20002KT M05/M06 A3026 RMK A01 T10531060  RH  095%=      5-min Rain = 0
KJU1 131230Z 19002KT M06/M06 A3026 RMK A01 T10571064  RH  095%=      5-min Rain = 0
KJU1 131231Z 20002KT M06/M06 A3026 RMK A01 T10571064  RH  095%=      5-min Rain = 0
KJU1 131232Z 20001KT M06/M07 A3026 RMK A01 T10581065  RH  095%=      5-min Rain = 0
KJU1 131233Z 20001KT M06/M07 A3026 RMK A01 T10591066  RH  095%=      5-min Rain = 0
KJU1 131234Z 20001KT M06/M07 A3026 RMK A01 T10591065  RH  095%=      5-min Rain = 0
KJU1 131235Z 19001KT M06/M07 A3026 RMK A01 T10591066  RH  095%=      5-min Rain = 0
KJU1 131236Z 19000KT M06/M07 A3026 RMK A01 T10601066  RH  095%=      5-min Rain = 0
KJU1 131237Z 00000KT M06/M07 A3026 RMK A01 T10611068  RH  095%=      5-min Rain = 0
KJU1 131238Z 00000KT M06/M07 A3026 RMK A01 T10621069  RH  095%=      5-min Rain = 0
KJU1 131239Z 00000KT M06/M07 A3026 RMK A01 T10631070  RH  095%=      5-min Rain = 0
KJU1 131240Z 00000KT M06/M07 A3026 RMK A01 T10611068  RH  095%=      5-min Rain = 0
KJU1 131241Z 00000KT M06/M07 A3026 RMK A01 T10601066  RH  095%=      5-min Rain = 0
KJU1 131242Z 00000KT M06/M07 A3026 RMK A01 T10591065  RH  096%=      5-min Rain = 0
KJU1 131243Z 00000KT M06/M07 A3026 RMK A01 T10591065  RH  096%=      5-min Rain = 0
KJU1 131244Z 19000KT M06/M06 A3026 RMK A01 T10581064  RH  096%=      5-min Rain = 0
KJU1 131245Z 19001KT M06/M07 A3026 RMK A01 T10591065  RH  095%=      5-min Rain = 0
KJU1 131246Z 19001KT M06/M07 A3026 RMK A01 T10611068  RH  095%=      5-min Rain = 0
KJU1 131247Z 19002KT M06/M07 A3026 RMK A01 T10641072  RH  095%=      5-min Rain = 0
KJU1 131248Z 19002KT M07/M07 A3026 RMK A01 T10661074  RH  094%=      5-min Rain = 0
KJU1 131249Z 19002KT M07/M07 A3026 RMK A01 T10661073  RH  095%=      5-min Rain = 0
KJU1 131250Z 19003KT M06/M07 A3026 RMK A01 T10631069  RH  095%=      5-min Rain = 0
KJU1 131251Z 18003KT M06/M06 A3026 RMK A01 T10591064  RH  096%=      5-min Rain = 0
KJU1 131252Z 18003KT M06/M06 A3026 RMK A01 T10551060  RH  096%=      5-min Rain = 0
KJU1 131253Z 19003KT M05/M06 A3026 RMK A01 T10521057  RH  097%=      5-min Rain = 0
KJU1 131254Z 19003KT M05/M06 A3026 RMK A01 T10501055  RH  097%=      5-min Rain = 0
KJU1 131255Z 19003KT M05/M05 A3026 RMK A01 T10491054  RH  097%=      5-min Rain = 0
KJU1 131256Z 19003KT M05/M05 A3026 RMK A01 T10481053  RH  097%=      5-min Rain = 0
KJU1 131257Z 19003KT M05/M05 A3026 RMK A01 T10481053  RH  097%=      5-min Rain = 0
KJU1 131258Z 19003KT M05/M05 A3026 RMK A01 T10481052  RH  096%=      5-min Rain = 0
KJU1 131259Z 19003KT M05/M05 A3027 RMK A01 T10471052  RH  096%=      5-min Rain = 0
KJU1 131300Z 19002KT M05/M05 A3027 RMK A01 T10491054  RH  096%=      5-min Rain = 0
KJU1 131301Z 19003KT M05/M06 A3027 RMK A01 T10511057  RH  096%=      5-min Rain = 0
KJU1 131302Z 19002KT M05/M06 A3027 RMK A01 T10541060  RH  095%=      5-min Rain = 0
KJU1 131303Z 19003KT M06/M06 A3027 RMK A01 T10561063  RH  095%=      5-min Rain = 0
KJU1 131304Z 19003KT M06/M07 A3027 RMK A01 T10591066  RH  095%=      5-min Rain = 0
KJU1 131305Z 18003KT M06/M07 A3027 RMK A01 T10621070  RH  094%=      5-min Rain = 0
KJU1 131306Z 18003KT M07/M07 A3027 RMK A01 T10651073  RH  094%=      5-min Rain = 0
KJU1 131307Z 18003KT M07/M07 A3027 RMK A01 T10651072  RH  095%=      5-min Rain = 0
KJU1 131308Z 18003KT M06/M07 A3026 RMK A01 T10611067  RH  095%=      5-min Rain = 0
KJU1 131309Z 18004KT M06/M07 A3026 RMK A01 T10591065  RH  096%=      5-min Rain = 0
KJU1 131310Z 18004KT M06/M06 A3026 RMK A01 T10581064  RH  096%=      5-min Rain = 0
KJU1 131311Z 18004KT M06/M06 A3026 RMK A01 T10581063  RH  096%=      5-min Rain = 0
KJU1 131312Z 19004KT M06/M06 A3026 RMK A01 T10571063  RH  096%=      5-min Rain = 0
KJU1 131313Z 19004KT M06/M06 A3026 RMK A01 T10571063  RH  096%=      5-min Rain = 0
KJU1 131314Z 19004KT M06/M06 A3026 RMK A01 T10561062  RH  096%=      5-min Rain = 0
KJU1 131315Z 19004KT M05/M06 A3026 RMK A01 T10541059  RH  096%=      5-min Rain = 0
KJU1 131316Z 19004KT M05/M06 A3026 RMK A01 T10531058  RH  096%=      5-min Rain = 0
KJU1 131317Z 19004KT M05/M06 A3026 RMK A01 T10541060  RH  096%=      5-min Rain = 0
KJU1 131318Z 19003KT M06/M06 A3026 RMK A01 T10561063  RH  095%=      5-min Rain = 0
KJU1 131319Z 19003KT M06/M06 A3026 RMK A01 T10561062  RH  096%=      5-min Rain = 0
KJU1 131320Z 19003KT M05/M06 A3026 RMK A01 T10531058  RH  096%=      5-min Rain = 0
KJU1 131321Z 19003KT M05/M06 A3026 RMK A01 T10511056  RH  096%=      5-min Rain = 0
KJU1 131322Z 19003KT M05/M06 A3026 RMK A01 T10501055  RH  096%=      5-min Rain = 0
KJU1 131323Z 19003KT M05/M05 A3026 RMK A01 T10491054  RH  096%=      5-min Rain = 0
KJU1 131324Z 19003KT M05/M05 A3026 RMK A01 T10481053  RH  096%=      5-min Rain = 0
KJU1 131325Z 19003KT M05/M05 A3026 RMK A01 T10481053  RH  096%=      5-min Rain = 0
KJU1 131326Z 19003KT M05/M05 A3026 RMK A01 T10481053  RH  096%=      5-min Rain = 0
KJU1 131327Z 19003KT M05/M05 A3026 RMK A01 T10491054  RH  096%=      5-min Rain = 0
KJU1 131328Z 19003KT M05/M06 A3026 RMK A01 T10501056  RH  096%=      5-min Rain = 0
KJU1 131329Z 19002KT M05/M06 A3026 RMK A01 T10521059  RH  095%=      5-min Rain = 0
KJU1 131330Z 19003KT M05/M06 A3026 RMK A01 T10541060  RH  095%=      5-min Rain = 0
KJU1 131331Z 19002KT M05/M06 A3026 RMK A01 T10541060  RH  095%=      5-min Rain = 0
KJU1 131332Z 19003KT M05/M06 A3026 RMK A01 T10541060  RH  096%=      5-min Rain = 0
KJU1 131333Z 19003KT M05/M06 A3026 RMK A01 T10531058  RH  096%=      5-min Rain = 0
KJU1 131334Z 18003KT M05/M06 A3026 RMK A01 T10501056  RH  096%=      5-min Rain = 0
KJU1 131335Z 18003KT M05/M05 A3026 RMK A01 T10491054  RH  096%=      5-min Rain = 0
KJU1 131336Z 17003KT M05/M06 A3026 RMK A01 T10491055  RH  096%=      5-min Rain = 0
KJU1 131337Z 18003KT M05/M06 A3026 RMK A01 T10501056  RH  096%=      5-min Rain = 0
KJU1 131338Z 18003KT M05/M06 A3026 RMK A01 T10501056  RH  096%=      5-min Rain = 0
KJU1 131339Z 18003KT M05/M06 A3026 RMK A01 T10511057  RH  096%=      5-min Rain = 0
KJU1 131340Z 18003KT M05/M06 A3026 RMK A01 T10521058  RH  096%=      5-min Rain = 0
KJU1 131341Z 18003KT M05/M06 A3026 RMK A01 T10521058  RH  096%=      5-min Rain = 0
KJU1 131342Z 18003KT M05/M06 A3026 RMK A01 T10511057  RH  096%=      5-min Rain = 0
KJU1 131343Z 18003KT M05/M06 A3026 RMK A01 T10501055  RH  096%=      5-min Rain = 0
KJU1 131344Z 18003KT M05/M05 A3026 RMK A01 T10491054  RH  096%=      5-min Rain = 0
KJU1 131345Z 18003KT M05/M05 A3026 RMK A01 T10471052  RH  096%=      5-min Rain = 0
KJU1 131346Z 18002KT M05/M05 A3026 RMK A01 T10471052  RH  096%=      5-min Rain = 0
KJU1 131347Z 18003KT M05/M05 A3026 RMK A01 T10471052  RH  096%=      5-min Rain = 0
KJU1 131348Z 18003KT M05/M05 A3026 RMK A01 T10481053  RH  096%=      5-min Rain = 0
KJU1 131349Z 18002KT M05/M05 A3026 RMK A01 T10481054  RH  096%=      5-min Rain = 0
KJU1 131350Z 18002KT M05/M05 A3025 RMK A01 T10481053  RH  096%=      5-min Rain = 0
KJU1 131351Z 18002KT M05/M05 A3025 RMK A01 T10461052  RH  096%=      5-min Rain = 0
KJU1 131352Z 18003KT M05/M05 A3025 RMK A01 T10451050  RH  096%=      5-min Rain = 0
KJU1 131353Z 17002KT M04/M05 A3025 RMK A01 T10441049  RH  096%=      5-min Rain = 0
KJU1 131354Z 17002KT M04/M05 A3025 RMK A01 T10431048  RH  097%=      5-min Rain = 0
KJU1 131355Z 17003KT M04/M05 A3025 RMK A01 T10431048  RH  096%=      5-min Rain = 0
KJU1 131356Z 17003KT M04/M05 A3025 RMK A01 T10441049  RH  096%=      5-min Rain = 0
KJU1 131357Z 18003KT M04/M05 A3025 RMK A01 T10441049  RH  096%=      5-min Rain = 0
KJU1 131358Z 17004KT M04/M05 A3025 RMK A01 T10431048  RH  096%=      5-min Rain = 0
KJU1 131359Z 18004KT M04/M05 A3025 RMK A01 T10411046  RH  097%=      5-min Rain = 0
KJU1 131400Z 18004KT M04/M04 A3025 RMK A01 T10401044  RH  097%=      5-min Rain = 0
KJU1 131401Z 18004KT M04/M04 A3025 RMK A01 T10391044  RH  097%=      5-min Rain = 0
KJU1 131402Z 18004KT M04/M04 A3025 RMK A01 T10391043  RH  097%=      5-min Rain = 0
KJU1 131403Z 18003KT M04/M04 A3025 RMK A01 T10371042  RH  097%=      5-min Rain = 0
KJU1 131404Z 18003KT M04/M04 A3025 RMK A01 T10371041  RH  097%=      5-min Rain = 0
KJU1 131405Z 18003KT M04/M04 A3025 RMK A01 T10371041  RH  097%=      5-min Rain = 0
KJU1 131406Z 18002KT M04/M04 A3025 RMK A01 T10371042  RH  097%=      5-min Rain = 0
KJU1 131407Z 18002KT M04/M04 A3025 RMK A01 T10371042  RH  096%=      5-min Rain = 0
KJU1 131408Z 17002KT M04/M04 A3025 RMK A01 T10351040  RH  097%=      5-min Rain = 0
KJU1 131409Z 18002KT M03/M04 A3025 RMK A01 T10331038  RH  097%=      5-min Rain = 0
KJU1 131410Z 18002KT M03/M04 A3024 RMK A01 T10321036  RH  097%=      5-min Rain = 0
KJU1 131411Z 18002KT M03/M04 A3024 RMK A01 T10301035  RH  097%=      5-min Rain = 0
KJU1 131412Z 18002KT M03/M03 A3024 RMK A01 T10291033  RH  097%=      5-min Rain = 0
KJU1 131413Z 19002KT M03/M03 A3024 RMK A01 T10271031  RH  097%=      5-min Rain = 0
KJU1 131414Z 17001KT M03/M03 A3024 RMK A01 T10261030  RH  097%=      5-min Rain = 0
KJU1 131415Z 16002KT M03/M03 A3024 RMK A01 T10251029  RH  097%=      5-min Rain = 0
KJU1 131416Z 16002KT M02/M03 A3024 RMK A01 T10241028  RH  097%=      5-min Rain = 0
KJU1 131417Z 17002KT M02/M03 A3024 RMK A01 T10231027  RH  097%=      5-min Rain = 0
KJU1 131418Z 16002KT M02/M03 A3024 RMK A01 T10231027  RH  097%=      5-min Rain = 0
KJU1 131419Z 16001KT M02/M03 A3024 RMK A01 T10221027  RH  097%=      5-min Rain = 0
KJU1 131420Z 15001KT M02/M03 A3024 RMK A01 T10221027  RH  096%=      5-min Rain = 0
KJU1 131421Z 16001KT M02/M03 A3024 RMK A01 T10211026  RH  096%=      5-min Rain = 0
KJU1 131422Z 16001KT M02/M03 A3024 RMK A01 T10211026  RH  096%=      5-min Rain = 0
KJU1 131423Z 14001KT M02/M03 A3024 RMK A01 T10191025  RH  096%=      5-min Rain = 0
KJU1 131424Z 15001KT M02/M02 A3024 RMK A01 T10191024  RH  096%=      5-min Rain = 0
KJU1 131425Z 17001KT M02/M02 A3024 RMK A01 T10181023  RH  096%=      5-min Rain = 0
KJU1 131426Z 13001KT M02/M02 A3024 RMK A01 T10171022  RH  096%=      5-min Rain = 0
KJU1 131427Z 13001KT M02/M02 A3024 RMK A01 T10151021  RH  096%=      5-min Rain = 0
KJU1 131428Z 13001KT M02/M02 A3024 RMK A01 T10151021  RH  096%=      5-min Rain = 0
KJU1 131429Z 13001KT M02/M02 A3024 RMK A01 T10151021  RH  096%=      5-min Rain = 0
KJU1 131430Z 13001KT M02/M02 A3024 RMK A01 T10151022  RH  095%=      5-min Rain = 0
KJU1 131431Z 14001KT M02/M02 A3024 RMK A01 T10151022  RH  095%=      5-min Rain = 0
KJU1 131432Z 16001KT M02/M02 A3024 RMK A01 T10151022  RH  095%=      5-min Rain = 0
KJU1 131433Z 13000KT M01/M02 A3024 RMK A01 T10131020  RH  095%=      5-min Rain = 0
KJU1 131434Z 15001KT M01/M02 A3024 RMK A01 T10121019  RH  095%=      5-min Rain = 0
KJU1 131435Z 15001KT M01/M02 A3024 RMK A01 T10111018  RH  095%=      5-min Rain = 0
KJU1 131436Z 15001KT M01/M02 A3024 RMK A01 T10101017  RH  095%=      5-min Rain = 0
KJU1 131437Z 16001KT M01/M02 A3024 RMK A01 T10091017  RH  095%=      5-min Rain = 0
KJU1 131438Z 14001KT M01/M02 A3024 RMK A01 T10091017  RH  094%=      5-min Rain = 0
KJU1 131439Z 14000KT M01/M02 A3024 RMK A01 T10071015  RH  094%=      5-min Rain = 0
KJU1 131440Z 16001KT M01/M01 A3024 RMK A01 T10051013  RH  094%=      5-min Rain = 0
KJU1 131441Z 15001KT M00/M01 A3024 RMK A01 T10041012  RH  094%=      5-min Rain = 0
KJU1 131442Z 14000KT M00/M01 A3023 RMK A01 T10031012  RH  094%=      5-min Rain = 0
KJU1 131443Z 10000KT M00/M01 A3023 RMK A01 T10031012  RH  093%=      5-min Rain = 0
KJU1 131444Z 10001KT M00/M01 A3023 RMK A01 T10021012  RH  093%=      5-min Rain = 0
KJU1 131445Z 10001KT M00/M01 A3023 RMK A01 T10021014  RH  092%=      5-min Rain = 0
KJU1 131446Z 11000KT M00/M02 A3023 RMK A01 T10031015  RH  092%=      5-min Rain = 0
KJU1 131447Z 12001KT M00/M01 A3023 RMK A01 T10031014  RH  092%=      5-min Rain = 0
KJU1 131448Z 11001KT M00/M01 A3023 RMK A01 T10021014  RH  092%=      5-min Rain = 0
KJU1 131449Z 12001KT M00/M01 A3023 RMK A01 T10011013  RH  092%=      5-min Rain = 0
KJU1 131450Z 09001KT 00/01 A3023 RMK A01 T00-00-12  RH  091%=      5-min Rain = 0
KJU1 131451Z 10001KT 00/M01 A3023 RMK A01 T00011012  RH  091%=      5-min Rain = 0
KJU1 131452Z 11001KT 00/M01 A3023 RMK A01 T00021012  RH  091%=      5-min Rain = 0
KJU1 131453Z 11001KT 00/M01 A3023 RMK A01 T00021012  RH  090%=      5-min Rain = 0
KJU1 131454Z 14001KT 00/M01 A3023 RMK A01 T00031011  RH  091%=      5-min Rain = 0
KJU1 131455Z 14001KT 01/M01 A3023 RMK A01 T00051009  RH  090%=      5-min Rain = 0
KJU1 131456Z 14001KT 01/M01 A3023 RMK A01 T00061009  RH  090%=      5-min Rain = 0
KJU1 131457Z 15002KT 01/M01 A3023 RMK A01 T00061009  RH  089%=      5-min Rain = 0
KJU1 131458Z 14001KT 01/M01 A3023 RMK A01 T00071009  RH  089%=      5-min Rain = 0
KJU1 131459Z 14001KT 01/M01 A3023 RMK A01 T00071010  RH  088%=      5-min Rain = 0
KJU1 131500Z 14001KT 01/M01 A3023 RMK A01 T00071010  RH  088%=      5-min Rain = 0
KJU1 131501Z 12001KT 01/M01 A3023 RMK A01 T00071010  RH  088%=      5-min Rain = 0
KJU1 131502Z 14002KT 01/M01 A3023 RMK A01 T00081010  RH  088%=      5-min Rain = 0
KJU1 131503Z 16002KT 01/M01 A3023 RMK A01 T00081010  RH  088%=      5-min Rain = 0
KJU1 131504Z 14002KT 01/M01 A3023 RMK A01 T00091009  RH  088%=      5-min Rain = 0
KJU1 131505Z 14002KT 01/M01 A3023 RMK A01 T00091009  RH  088%=      5-min Rain = 0
KJU1 131506Z 13002KT 01/M01 A3023 RMK A01 T00091008  RH  088%=      5-min Rain = 0
KJU1 131507Z 13002KT 01/M01 A3023 RMK A01 T00091008  RH  088%=      5-min Rain = 0
KJU1 131508Z 16003KT 01/M01 A3023 RMK A01 T00101008  RH  088%=      5-min Rain = 0
KJU1 131509Z 14003KT 01/M01 A3023 RMK A01 T00101007  RH  089%=      5-min Rain = 0
KJU1 131510Z 14002KT 01/M01 A3023 RMK A01 T00101007  RH  088%=      5-min Rain = 0
KJU1 131511Z 15003KT 01/M01 A3023 RMK A01 T00111006  RH  089%=      5-min Rain = 0
KJU1 131512Z 15003KT 01/M01 A3023 RMK A01 T00111005  RH  089%=      5-min Rain = 0
KJU1 131513Z 15002KT 01/M00 A3023 RMK A01 T00121004  RH  089%=      5-min Rain = 0
KJU1 131514Z 15003KT 01/M00 A3023 RMK A01 T00131004  RH  089%=      5-min Rain = 0
KJU1 131515Z 14002KT 01/M00 A3023 RMK A01 T00131004  RH  089%=      5-min Rain = 0
KJU1 131516Z 15002KT 01/M01 A3023 RMK A01 T00131005  RH  088%=      5-min Rain = 0
KJU1 131517Z 14003KT 01/M00 A3023 RMK A01 T00141003  RH  089%=      5-min Rain = 0
KJU1 131518Z 15002KT 02/M00 A3023 RMK A01 T00151001  RH  089%=      5-min Rain = 0
KJU1 131519Z 17002KT 02/00 A3023 RMK A01 T001600-0  RH  089%=      5-min Rain = 0
KJU1 131520Z 14002KT 02/00 A3023 RMK A01 T00170001  RH  089%=      5-min Rain = 0
KJU1 131521Z 14002KT 02/00 A3023 RMK A01 T00180001  RH  088%=      5-min Rain = 0
KJU1 131522Z 13002KT 02/00 A3023 RMK A01 T00190002  RH  088%=      5-min Rain = 0
KJU1 131523Z 13002KT 02/00 A3023 RMK A01 T00200002  RH  088%=      5-min Rain = 0
KJU1 131524Z 15002KT 02/00 A3023 RMK A01 T00200001  RH  087%=      5-min Rain = 0
KJU1 131525Z 16001KT 02/00 A3023 RMK A01 T00210001  RH  087%=      5-min Rain = 0
KJU1 131526Z 16002KT 02/00 A3023 RMK A01 T00220002  RH  087%=      5-min Rain = 0
KJU1 131527Z 21002KT 02/00 A3023 RMK A01 T00230003  RH  087%=      5-min Rain = 0
KJU1 131528Z 21001KT 03/01 A3023 RMK A01 T00250005  RH  087%=      5-min Rain = 0
KJU1 131529Z 14002KT 03/01 A3023 RMK A01 T00260006  RH  086%=      5-min Rain = 0
KJU1 131530Z 18001KT 03/01 A3023 RMK A01 T00270005  RH  085%=      5-min Rain = 0
KJU1 131531Z 20001KT 03/01 A3023 RMK A01 T00280005  RH  085%=      5-min Rain = 0
KJU1 131532Z 19002KT 03/01 A3023 RMK A01 T00290006  RH  085%=      5-min Rain = 0
KJU1 131533Z 21003KT 03/01 A3023 RMK A01 T00300005  RH  084%=      5-min Rain = 0
KJU1 131534Z 20003KT 03/00 A3023 RMK A01 T00300004  RH  083%=      5-min Rain = 0
KJU1 131535Z 20002KT 03/01 A3023 RMK A01 T00320006  RH  083%=      5-min Rain = 0
KJU1 131536Z 21002KT 03/01 A3023 RMK A01 T00320005  RH  083%=      5-min Rain = 0
KJU1 131537Z 20002KT 03/01 A3023 RMK A01 T00330005  RH  082%=      5-min Rain = 0
KJU1 131538Z 19003KT 03/01 A3022 RMK A01 T00340007  RH  083%=      5-min Rain = 0
KJU1 131539Z 20003KT 04/01 A3022 RMK A01 T00350007  RH  082%=      5-min Rain = 0
KJU1 131540Z 20003KT 04/01 A3022 RMK A01 T00360007  RH  081%=      5-min Rain = 0
KJU1 131541Z 20002KT 04/01 A3022 RMK A01 T00360007  RH  081%=      5-min Rain = 0
KJU1 131542Z 17003KT 04/01 A3022 RMK A01 T00370007  RH  081%=      5-min Rain = 0
KJU1 131543Z 18003KT 04/01 A3022 RMK A01 T00380007  RH  080%=      5-min Rain = 0
KJU1 131544Z 16003KT 04/01 A3022 RMK A01 T00390007  RH  080%=      5-min Rain = 0
KJU1 131545Z 18003KT 04/01 A3022 RMK A01 T00400007  RH  079%=      5-min Rain = 0
KJU1 131546Z 15003KT 04/01 A3022 RMK A01 T00420009  RH  079%=      5-min Rain = 0
KJU1 131547Z 16002KT 04/01 A3022 RMK A01 T00420009  RH  079%=      5-min Rain = 0
KJU1 131548Z 15003KT 04/01 A3022 RMK A01 T00440010  RH  079%=      5-min Rain = 0
KJU1 131549Z 19003KT 05/01 A3022 RMK A01 T00450010  RH  078%=      5-min Rain = 0
KJU1 131550Z 17003KT 05/01 A3022 RMK A01 T00460010  RH  077%=      5-min Rain = 0
KJU1 131551Z 17004KT 05/01 A3022 RMK A01 T00460009  RH  077%=      5-min Rain = 0
KJU1 131552Z 17004KT 05/01 A3022 RMK A01 T00460007  RH  076%=      5-min Rain = 0
KJU1 131553Z 18004KT 05/01 A3022 RMK A01 T00470007  RH  075%=      5-min Rain = 0
KJU1 131554Z 17003KT 05/01 A3022 RMK A01 T00480009  RH  076%=      5-min Rain = 0
KJU1 131555Z 17004KT 05/01 A3022 RMK A01 T00490011  RH  076%=      5-min Rain = 0
KJU1 131556Z 18003KT 05/01 A3022 RMK A01 T00500010  RH  075%=      5-min Rain = 0
KJU1 131557Z 18003KT 05/01 A3022 RMK A01 T00510010  RH  075%=      5-min Rain = 0
KJU1 131558Z 19002KT 05/01 A3022 RMK A01 T00520011  RH  075%=      5-min Rain = 0
KJU1 131559Z 19003KT 05/01 A3022 RMK A01 T00540012  RH  075%=      5-min Rain = 0
KJU1 131600Z 21004KT 06/01 A3022 RMK A01 T00550013  RH  074%=      5-min Rain = 0
KJU1 131601Z 19003KT 06/01 A3022 RMK A01 T00550010  RH  072%=      5-min Rain = 0
KJU1 131602Z 19004KT 06/01 A3022 RMK A01 T00570012  RH  073%=      5-min Rain = 0
KJU1 131603Z 19004KT 06/01 A3022 RMK A01 T00590011  RH  071%=      5-min Rain = 0
KJU1 131604Z 20005KT 06/01 A3022 RMK A01 T00600013  RH  072%=      5-min Rain = 0
KJU1 131605Z 21004KT 06/01 A3022 RMK A01 T00620011  RH  070%=      5-min Rain = 0
KJU1 131606Z 22004KT 06/01 A3022 RMK A01 T00620010  RH  069%=      5-min Rain = 0
KJU1 131607Z 21003KT 06/01 A3022 RMK A01 T00640013  RH  070%=      5-min Rain = 0
KJU1 131608Z 20004KT 07/01 A3022 RMK A01 T00650011  RH  069%=      5-min Rain = 0
KJU1 131609Z 20004KT 07/01 A3022 RMK A01 T00660011  RH  068%=      5-min Rain = 0
KJU1 131610Z 21004KT 07/01 A3022 RMK A01 T00670012  RH  068%=      5-min Rain = 0
KJU1 131611Z 19004KT 07/01 A3022 RMK A01 T00670011  RH  067%=      5-min Rain = 0
KJU1 131612Z 19004KT 07/01 A3022 RMK A01 T00680010  RH  067%=      5-min Rain = 0
KJU1 131613Z 20005KT 07/01 A3022 RMK A01 T00690012  RH  067%=      5-min Rain = 0
KJU1 131614Z 21004KT 07/01 A3021 RMK A01 T00690012  RH  067%=      5-min Rain = 0
KJU1 131615Z 20005KT 07/01 A3021 RMK A01 T00700012  RH  067%=      5-min Rain = 0
KJU1 131616Z 19006KT 07/01 A3021 RMK A01 T00710012  RH  066%=      5-min Rain = 0
KJU1 131617Z 20006KT 07/01 A3021 RMK A01 T00720011  RH  065%=      5-min Rain = 0
KJU1 131618Z 19005KT 07/01 A3021 RMK A01 T00720010  RH  065%=      5-min Rain = 0
KJU1 131619Z 19006KT 07/01 A3021 RMK A01 T00730012  RH  065%=      5-min Rain = 0
KJU1 131620Z 19005KT 07/01 A3021 RMK A01 T00740013  RH  065%=      5-min Rain = 0
KJU1 131621Z 19005KT 08/01 A3021 RMK A01 T00750013  RH  064%=      5-min Rain = 0
KJU1 131622Z 20006KT 08/01 A3021 RMK A01 T00770012  RH  064%=      5-min Rain = 0
KJU1 131623Z 20005KT 08/01 A3021 RMK A01 T00770012  RH  063%=      5-min Rain = 0
KJU1 131624Z 21004KT 08/01 A3021 RMK A01 T00780012  RH  063%=      5-min Rain = 0
KJU1 131625Z 21004KT 08/01 A3021 RMK A01 T00790014  RH  064%=      5-min Rain = 0
KJU1 131626Z 21005KT 08/01 A3021 RMK A01 T00810014  RH  063%=      5-min Rain = 0
KJU1 131627Z 21004KT 08/02 A3021 RMK A01 T00820015  RH  063%=      5-min Rain = 0
KJU1 131628Z 22004KT 09/02 A3021 RMK A01 T00850017  RH  063%=      5-min Rain = 0
KJU1 131629Z 21005KT 09/02 A3021 RMK A01 T00860016  RH  062%=      5-min Rain = 0
KJU1 131630Z 21005KT 09/01 A3021 RMK A01 T00870013  RH  060%=      5-min Rain = 0
KJU1 131631Z 21005KT 09/01 A3021 RMK A01 T00880014  RH  060%=      5-min Rain = 0
KJU1 131632Z 22005KT 09/02 A3021 RMK A01 T00900018  RH  060%=      5-min Rain = 0
KJU1 131633Z 21004KT 09/02 A302 RMK A01 T00930020  RH  060%=      5-min Rain = 0
KJU1 131634Z 21006KT 09/02 A302 RMK A01 T00940017  RH  059%=      5-min Rain = 0
KJU1 131635Z 21004KT 10/01 A302 RMK A01 T00950014  RH  057%=      5-min Rain = 0
KJU1 131636Z 21005KT 10/02 A302 RMK A01 T00960022  RH  060%=      5-min Rain = 0
KJU1 131637Z 21007KT 10/02 A302 RMK A01 T00990023  RH  059%=      5-min Rain = 0
KJU1 131638Z 22007KT 10/02 A302 RMK A01 T01000018  RH  057%=      5-min Rain = 0
KJU1 131639Z 21006KT 10/02 A302 RMK A01 T01000015  RH  055%=      5-min Rain = 0
KJU1 131640Z 22005KT 10/02 A302 RMK A01 T01010016  RH  055%=      5-min Rain = 0
KJU1 131641Z 22004KT 10/02 A302 RMK A01 T01020017  RH  055%=      5-min Rain = 0
KJU1 131642Z 23005KT 10/01 A302 RMK A01 T01040014  RH  054%=      5-min Rain = 0
KJU1 131643Z 24004KT 10/01 A302 RMK A01 T01040013  RH  053%=      5-min Rain = 0
KJU1 131644Z 28002KT 11/01 A302 RMK A01 T01050014  RH  053%=      5-min Rain = 0
KJU1 131645Z 33003KT 11/02 A302 RMK A01 T01060019  RH  055%=      5-min Rain = 0
KJU1 131646Z 34002KT 11/02 A302 RMK A01 T01060022  RH  056%=      5-min Rain = 0
KJU1 131647Z 26003KT 10/02 A302 RMK A01 T01040022  RH  057%=      5-min Rain = 0
KJU1 131648Z 27004KT 11/02 A302 RMK A01 T01070016  RH  053%=      5-min Rain = 0
KJU1 131649Z 24004KT 11/01 A302 RMK A01 T01100009  RH  050%=      5-min Rain = 0
KJU1 131650Z 25006G12KT 11/01 A302 RMK A01 T01140010  RH  049%=      5-min Rain = 0
KJU1 131651Z 25008KT 12/01 A302 RMK A01 T01160007  RH  047%=      5-min Rain = 0
KJU1 131652Z 25011KT 12/M00 A302 RMK A01 T01171001  RH  044%=      5-min Rain = 0
KJU1 131653Z 24006KT 12/M00 A3019 RMK A01 T01181004  RH  043%=      5-min Rain = 0
KJU1 131654Z 24007KT 12/M00 A3019 RMK A01 T01191002  RH  043%=      5-min Rain = 0
KJU1 131655Z 24010KT 12/M01 A3019 RMK A01 T01201005  RH  042%=      5-min Rain = 0
KJU1 131656Z 25007KT 12/M01 A3019 RMK A01 T01211006  RH  041%=      5-min Rain = 0
KJU1 131657Z 25009KT 12/M01 A3019 RMK A01 T01221006  RH  041%=      5-min Rain = 0
KJU1 131658Z 25007KT 12/M01 A3019 RMK A01 T01221007  RH  041%=      5-min Rain = 0
KJU1 131659Z 26007KT 12/M01 A3019 RMK A01 T01231006  RH  041%=      5-min Rain = 0
KJU1 131700Z 25009KT 12/M01 A3019 RMK A01 T01231008  RH  040%=      5-min Rain = 0
KJU1 131701Z 24010KT 12/M01 A3019 RMK A01 T01241010  RH  040%=      5-min Rain = 0
KJU1 131702Z 26010KT 12/M01 A3019 RMK A01 T01231010  RH  040%=      5-min Rain = 0
KJU1 131703Z 25009KT 12/M01 A3019 RMK A01 T01231010  RH  040%=      5-min Rain = 0
KJU1 131704Z 25010KT 12/M01 A3019 RMK A01 T01241009  RH  040%=      5-min Rain = 0
KJU1 131705Z 25010KT 12/M01 A3019 RMK A01 T01241010  RH  039%=      5-min Rain = 0
KJU1 131706Z 24010KT 12/M01 A3019 RMK A01 T01241010  RH  040%=      5-min Rain = 0
KJU1 131707Z 24010KT 12/M01 A3019 RMK A01 T01241011  RH  039%=      5-min Rain = 0
KJU1 131708Z 24009KT 12/M01 A3019 RMK A01 T01241011  RH  039%=      5-min Rain = 0
KJU1 131709Z 24006KT 13/M01 A3019 RMK A01 T01251009  RH  039%=      5-min Rain = 0
KJU1 131710Z 25009G14KT 13/M01 A3018 RMK A01 T01281006  RH  040%=      5-min Rain = 0
KJU1 131711Z 26010KT 13/M01 A3018 RMK A01 T01281010  RH  038%=      5-min Rain = 0
KJU1 131712Z 23009G15KT 13/M01 A3018 RMK A01 T01281011  RH  038%=      5-min Rain = 0
KJU1 131713Z 24007G12KT 13/M01 A3018 RMK A01 T01281010  RH  038%=      5-min Rain = 0
KJU1 131714Z 24008KT 13/M01 A3018 RMK A01 T01291010  RH  038%=      5-min Rain = 0
KJU1 131715Z 25008KT 13/M01 A3018 RMK A01 T01291013  RH  037%=      5-min Rain = 0
KJU1 131716Z 24010KT 13/M01 A3018 RMK A01 T01291014  RH  037%=      5-min Rain = 0
KJU1 131717Z 24010KT 13/M01 A3018 RMK A01 T01301013  RH  037%=      5-min Rain = 0
KJU1 131718Z 25009KT 13/M01 A3018 RMK A01 T01301013  RH  037%=      5-min Rain = 0
KJU1 131719Z 25010KT 13/M02 A3018 RMK A01 T01301015  RH  037%=      5-min Rain = 0
KJU1 131720Z 25011KT 13/M01 A3018 RMK A01 T01311014  RH  037%=      5-min Rain = 0
KJU1 131721Z 26009KT 13/M02 A3018 RMK A01 T01311016  RH  036%=      5-min Rain = 0
KJU1 131722Z 25007KT 13/M01 A3018 RMK A01 T01311014  RH  037%=      5-min Rain = 0
KJU1 131723Z 25009KT 13/M01 A3018 RMK A01 T01321011  RH  037%=      5-min Rain = 0
KJU1 131724Z 24009KT 13/M01 A3018 RMK A01 T01331012  RH  037%=      5-min Rain = 0
KJU1 131725Z 24007KT 13/M01 A3018 RMK A01 T01341013  RH  036%=      5-min Rain = 0
KJU1 131726Z 24009KT 14/M01 A3018 RMK A01 T01351011  RH  036%=      5-min Rain = 0
KJU1 131727Z 24008KT 14/M01 A3018 RMK A01 T01351014  RH  036%=      5-min Rain = 0
KJU1 131728Z 24009KT 13/M02 A3018 RMK A01 T01341016  RH  035%=      5-min Rain = 0
KJU1 131729Z 24009KT 13/M01 A3018 RMK A01 T01341014  RH  036%=      5-min Rain = 0
KJU1 131730Z 25009KT 14/M02 A3018 RMK A01 T01351015  RH  035%=      5-min Rain = 0
KJU1 131731Z 24009KT 14/M02 A3018 RMK A01 T01361015  RH  035%=      5-min Rain = 0
KJU1 131732Z 24006KT 14/M01 A3017 RMK A01 T01361012  RH  036%=      5-min Rain = 0
KJU1 131733Z 25008KT 14/M01 A3017 RMK A01 T01381011  RH  036%=      5-min Rain = 0
KJU1 131734Z 25009KT 14/M01 A3017 RMK A01 T01381012  RH  035%=      5-min Rain = 0
KJU1 131735Z 24008KT 14/M01 A3017 RMK A01 T01381011  RH  036%=      5-min Rain = 0
KJU1 131736Z 23008KT 14/M01 A3017 RMK A01 T01391011  RH  035%=      5-min Rain = 0
KJU1 131737Z 25010G15KT 14/M01 A3017 RMK A01 T01391014  RH  035%=      5-min Rain = 0
KJU1 131738Z 23010KT 14/M01 A3017 RMK A01 T01391014  RH  035%=      5-min Rain = 0
KJU1 131739Z 25010KT 14/M02 A3017 RMK A01 T01391016  RH  034%=      5-min Rain = 0
KJU1 131740Z 26006KT 14/M02 A3018 RMK A01 T01391017  RH  034%=      5-min Rain = 0
KJU1 131741Z 25008KT 14/M01 A3018 RMK A01 T01401014  RH  034%=      5-min Rain = 0
KJU1 131742Z 23010KT 14/M02 A3018 RMK A01 T01411016  RH  034%=      5-min Rain = 0
KJU1 131743Z 24009KT 14/M02 A3018 RMK A01 T01411017  RH  034%=      5-min Rain = 0
KJU1 131744Z 23008KT 14/M02 A3018 RMK A01 T01411016  RH  034%=      5-min Rain = 0
KJU1 131745Z 25008KT 14/M02 A3018 RMK A01 T01421016  RH  034%=      5-min Rain = 0
KJU1 131746Z 25008G13KT 14/M02 A3017 RMK A01 T01431017  RH  033%=      5-min Rain = 0
KJU1 131747Z 24010KT 14/M02 A3018 RMK A01 T01431018  RH  033%=      5-min Rain = 0
KJU1 131748Z 25008KT 14/M02 A3017 RMK A01 T01431020  RH  033%=      5-min Rain = 0
KJU1 131749Z 24010KT 14/M02 A3017 RMK A01 T01421021  RH  032%=      5-min Rain = 0
KJU1 131750Z 24008KT 14/M02 A3017 RMK A01 T01421021  RH  033%=      5-min Rain = 0
KJU1 131751Z 23010KT 14/M02 A3017 RMK A01 T01421022  RH  032%=      5-min Rain = 0
KJU1 131752Z 23009KT 14/M02 A3017 RMK A01 T01431020  RH  033%=      5-min Rain = 0
KJU1 131753Z 23009G14KT 14/M02 A3017 RMK A01 T01441020  RH  032%=      5-min Rain = 0
KJU1 131754Z 24009KT 14/M02 A3017 RMK A01 T01441020  RH  032%=      5-min Rain = 0
KJU1 131755Z 24008KT 14/M02 A3017 RMK A01 T01441021  RH  032%=      5-min Rain = 0
KJU1 131756Z 23009KT 14/M02 A3017 RMK A01 T01441021  RH  032%=      5-min Rain = 0
KJU1 131757Z 23010KT 14/M02 A3017 RMK A01 T01441019  RH  032%=      5-min Rain = 0
KJU1 131758Z 23009KT 14/M02 A3017 RMK A01 T01441018  RH  033%=      5-min Rain = 0
KJU1 131759Z 24007KT 15/M02 A3016 RMK A01 T01451017  RH  033%=      5-min Rain = 0
KJU1 131800Z 23008KT 15/M02 A3016 RMK A01 T01451019  RH  032%=      5-min Rain = 0
KJU1 131801Z 23006KT 15/M02 A3016 RMK A01 T01461019  RH  032%=      5-min Rain = 0
KJU1 131802Z 23007KT 15/M01 A3016 RMK A01 T01471014  RH  033%=      5-min Rain = 0
KJU1 131803Z 24006KT 15/M01 A3016 RMK A01 T01501010  RH  033%=      5-min Rain = 0
KJU1 131804Z 22007KT 15/M01 A3016 RMK A01 T01521014  RH  032%=      5-min Rain = 0
KJU1 131805Z 24008KT 15/M01 A3016 RMK A01 T01511013  RH  032%=      5-min Rain = 0
KJU1 131806Z 25008KT 15/M02 A3016 RMK A01 T01521015  RH  032%=      5-min Rain = 0
KJU1 131807Z 23008KT 15/M02 A3016 RMK A01 T01511018  RH  031%=      5-min Rain = 0
KJU1 131808Z 23008KT 15/M02 A3016 RMK A01 T01511020  RH  031%=      5-min Rain = 0
KJU1 131809Z 23007KT 15/M02 A3015 RMK A01 T01501019  RH  031%=      5-min Rain = 0
KJU1 131810Z 22009KT 15/M02 A3015 RMK A01 T01501022  RH  030%=      5-min Rain = 0
KJU1 131811Z 23007KT 15/M02 A3015 RMK A01 T01501020  RH  031%=      5-min Rain = 0
KJU1 131812Z 23010KT 15/M02 A3015 RMK A01 T01511020  RH  031%=      5-min Rain = 0
KJU1 131813Z 23007KT 15/M02 A3015 RMK A01 T01511019  RH  031%=      5-min Rain = 0
KJU1 131814Z 23008KT 15/M02 A3015 RMK A01 T01521016  RH  032%=      5-min Rain = 0
KJU1 131815Z 23009KT 15/M02 A3015 RMK A01 T01521018  RH  031%=      5-min Rain = 0
KJU1 131816Z 23006KT 15/M02 A3015 RMK A01 T01521018  RH  031%=      5-min Rain = 0
KJU1 131817Z 24008KT 15/M02 A3015 RMK A01 T01521019  RH  031%=      5-min Rain = 0
KJU1 131818Z 24006KT 15/M02 A3015 RMK A01 T01521017  RH  031%=      5-min Rain = 0
KJU1 131819Z 24008KT 15/M02 A3015 RMK A01 T01541018  RH  031%=      5-min Rain = 0
KJU1 131820Z 24008KT 15/M02 A3015 RMK A01 T01531021  RH  030%=      5-min Rain = 0
KJU1 131821Z 25008KT 15/M02 A3015 RMK A01 T01531021  RH  030%=      5-min Rain = 0
KJU1 131822Z 23006KT 15/M02 A3015 RMK A01 T01541020  RH  030%=      5-min Rain = 0
KJU1 131823Z 24008KT 16/M02 A3015 RMK A01 T01551017  RH  031%=      5-min Rain = 0
KJU1 131824Z 25007KT 16/M02 A3015 RMK A01 T01561017  RH  030%=      5-min Rain = 0
KJU1 131825Z 23009KT 16/M02 A3015 RMK A01 T01571018  RH  030%=      5-min Rain = 0
KJU1 131826Z 24007KT 16/M02 A3015 RMK A01 T01571021  RH  029%=      5-min Rain = 0
KJU1 131827Z 24006KT 16/M02 A3015 RMK A01 T01561023  RH  029%=      5-min Rain = 0
KJU1 131828Z 26006KT 16/M02 A3015 RMK A01 T01561019  RH  030%=      5-min Rain = 0
KJU1 131829Z 22005KT 16/M02 A3014 RMK A01 T01571017  RH  030%=      5-min Rain = 0
KJU1 131830Z 25008KT 16/M02 A3014 RMK A01 T01591017  RH  030%=      5-min Rain = 0
KJU1 131831Z 27009KT 16/M02 A3014 RMK A01 T01581019  RH  029%=      5-min Rain = 0
KJU1 131832Z 27007KT 16/M02 A3014 RMK A01 T01571019  RH  030%=      5-min Rain = 0
KJU1 131833Z 23007KT 16/M02 A3014 RMK A01 T01561017  RH  030%=      5-min Rain = 0
KJU1 131834Z 22010KT 16/M01 A3014 RMK A01 T01571014  RH  031%=      5-min Rain = 0
KJU1 131835Z 23007KT 16/M01 A3014 RMK A01 T01601012  RH  031%=      5-min Rain = 0
KJU1 131836Z 23009KT 16/M02 A3014 RMK A01 T01611018  RH  029%=      5-min Rain = 0
KJU1 131837Z 25008KT 16/M02 A3014 RMK A01 T01601021  RH  029%=      5-min Rain = 0
KJU1 131838Z 26008KT 16/M03 A3014 RMK A01 T01591025  RH  028%=      5-min Rain = 0
KJU1 131839Z 25010KT 16/M02 A3014 RMK A01 T01591023  RH  029%=      5-min Rain = 0
KJU1 131840Z 25009KT 16/M03 A3014 RMK A01 T01581026  RH  028%=      5-min Rain = 0
KJU1 131841Z 26007G12KT 16/M03 A3013 RMK A01 T01571029  RH  028%=      5-min Rain = 0
KJU1 131842Z 27007KT 16/M03 A3013 RMK A01 T01571026  RH  028%=      5-min Rain = 0
KJU1 131843Z 26005KT 16/M03 A3013 RMK A01 T01571026  RH  028%=      5-min Rain = 0
KJU1 131844Z 23006KT 16/M02 A3013 RMK A01 T01591021  RH  029%=      5-min Rain = 0
KJU1 131845Z 25007KT 16/M02 A3013 RMK A01 T01601020  RH  029%=      5-min Rain = 0
KJU1 131846Z 26009G14KT 16/M03 A3013 RMK A01 T01601026  RH  028%=      5-min Rain = 0
KJU1 131847Z 25007KT 16/M03 A3013 RMK A01 T01591027  RH  028%=      5-min Rain = 0
KJU1 131848Z 26008KT 16/M03 A3013 RMK A01 T01581027  RH  028%=      5-min Rain = 0
KJU1 131849Z 26008KT 16/M03 A3013 RMK A01 T01581026  RH  028%=      5-min Rain = 0
KJU1 131850Z 27008KT 16/M03 A3013 RMK A01 T01571026  RH  028%=      5-min Rain = 0
KJU1 131851Z 24010KT 16/M02 A3013 RMK A01 T01571024  RH  029%=      5-min Rain = 0
KJU1 131852Z 25007KT 16/M03 A3013 RMK A01 T01581029  RH  027%=      5-min Rain = 0
KJU1 131853Z 27008KT 16/M03 A3013 RMK A01 T01581029  RH  028%=      5-min Rain = 0
KJU1 131854Z 26008KT 16/M03 A3012 RMK A01 T01581026  RH  028%=      5-min Rain = 0
KJU1 131855Z 23010KT 16/M03 A3012 RMK A01 T01581028  RH  028%=      5-min Rain = 0
KJU1 131856Z 24007KT 16/M03 A3012 RMK A01 T01581030  RH  027%=      5-min Rain = 0
KJU1 131857Z 24006KT 16/M03 A3012 RMK A01 T01591027  RH  028%=      5-min Rain = 0
KJU1 131858Z 26008KT 16/M03 A3012 RMK A01 T01591027  RH  028%=      5-min Rain = 0
KJU1 131859Z 25006KT 16/M03 A3012 RMK A01 T01591025  RH  028%=      5-min Rain = 0
KJU1 131900Z 24011KT 16/M03 A3012 RMK A01 T01601026  RH  028%=      5-min Rain = 0
KJU1 131901Z 24010KT 16/M03 A3012 RMK A01 T01601031  RH  027%=      5-min Rain = 0
KJU1 131902Z 24007KT 16/M03 A3012 RMK A01 T01591033  RH  027%=      5-min Rain = 0
KJU1 131903Z 24008KT 16/M03 A3012 RMK A01 T01581031  RH  027%=      5-min Rain = 0
KJU1 131904Z 23007G14KT 16/M03 A3012 RMK A01 T01601029  RH  027%=      5-min Rain = 0
KJU1 131905Z 26009KT 16/M03 A3012 RMK A01 T01631025  RH  027%=      5-min Rain = 0
KJU1 131906Z 25007G12KT 16/M03 A3012 RMK A01 T01641026  RH  027%=      5-min Rain = 0
KJU1 131907Z 25007KT 16/M03 A3012 RMK A01 T01631027  RH  027%=      5-min Rain = 0
KJU1 131908Z 26007KT 16/M03 A3012 RMK A01 T01631028  RH  027%=      5-min Rain = 0
KJU1 131909Z 27008KT 16/M03 A3012 RMK A01 T01631026  RH  027%=      5-min Rain = 0
KJU1 131910Z 27008KT 16/M03 A3012 RMK A01 T01611031  RH  027%=      5-min Rain = 0
KJU1 131911Z 26005KT 16/M03 A3012 RMK A01 T01581031  RH  027%=      5-min Rain = 0
KJU1 131912Z 26007KT 16/M03 A3011 RMK A01 T01581028  RH  028%=      5-min Rain = 0
KJU1 131913Z 27005KT 16/M03 A3011 RMK A01 T01591027  RH  028%=      5-min Rain = 0
KJU1 131914Z 23005KT 16/M03 A3011 RMK A01 T01591025  RH  028%=      5-min Rain = 0
KJU1 131915Z 22007G12KT 16/M02 A3011 RMK A01 T01621022  RH  028%=      5-min Rain = 0
KJU1 131916Z 22007KT 16/M03 A3011 RMK A01 T01631025  RH  027%=      5-min Rain = 0
KJU1 131917Z 22008KT 17/M02 A3011 RMK A01 T01651018  RH  028%=      5-min Rain = 0
KJU1 131918Z 23008KT 17/M02 A3011 RMK A01 T01671022  RH  027%=      5-min Rain = 0
KJU1 131919Z 25007KT 17/M02 A3011 RMK A01 T01651024  RH  027%=      5-min Rain = 0
KJU1 131920Z 23008KT 17/M02 A3011 RMK A01 T01651024  RH  027%=      5-min Rain = 0
KJU1 131921Z 24008KT 17/M03 A3011 RMK A01 T01661027  RH  027%=      5-min Rain = 0
KJU1 131922Z 24007KT 17/M03 A3011 RMK A01 T01661029  RH  026%=      5-min Rain = 0
KJU1 131923Z 24008KT 17/M03 A3011 RMK A01 T01651029  RH  026%=      5-min Rain = 0
KJU1 131924Z 24007KT 17/M03 A3011 RMK A01 T01651031  RH  026%=      5-min Rain = 0
KJU1 131925Z 23006KT 16/M03 A301 RMK A01 T01631032  RH  026%=      5-min Rain = 0
KJU1 131926Z 22010KT 16/M03 A301 RMK A01 T01631027  RH  027%=      5-min Rain = 0
KJU1 131927Z 22008KT 16/M03 A301 RMK A01 T01631028  RH  027%=      5-min Rain = 0
KJU1 131928Z 22008KT 16/M03 A301 RMK A01 T01631031  RH  026%=      5-min Rain = 0
KJU1 131929Z 24006KT 16/M03 A301 RMK A01 T01631028  RH  027%=      5-min Rain = 0
KJU1 131930Z 22008KT 17/M02 A301 RMK A01 T01661023  RH  027%=      5-min Rain = 0
KJU1 131931Z 23008G13KT 17/M02 A301 RMK A01 T01671023  RH  027%=      5-min Rain = 0
KJU1 131932Z 23010KT 17/M02 A301 RMK A01 T01671024  RH  027%=      5-min Rain = 0
KJU1 131933Z 22007G12KT 17/M03 A301 RMK A01 T01671027  RH  026%=      5-min Rain = 0
KJU1 131934Z 21010KT 17/M02 A301 RMK A01 T01671024  RH  027%=      5-min Rain = 0
KJU1 131935Z 21011KT 17/M03 A301 RMK A01 T01671025  RH  027%=      5-min Rain = 0
KJU1 131936Z 21009KT 17/M03 A301 RMK A01 T01651025  RH  027%=      5-min Rain = 0
KJU1 131937Z 22011KT 17/M02 A301 RMK A01 T01651024  RH  027%=      5-min Rain = 0
KJU1 131938Z 22010KT 17/M03 A301 RMK A01 T01651026  RH  027%=      5-min Rain = 0
KJU1 131939Z 21010KT 17/M03 A3009 RMK A01 T01661026  RH  027%=      5-min Rain = 0
KJU1 131940Z 23011KT 17/M03 A3009 RMK A01 T01661026  RH  027%=      5-min Rain = 0
KJU1 131941Z 22009KT 17/M03 A301 RMK A01 T01661025  RH  027%=      5-min Rain = 0
KJU1 131942Z 21009KT 17/M02 A3009 RMK A01 T01671024  RH  027%=      5-min Rain = 0
KJU1 131943Z 24006KT 17/M02 A301 RMK A01 T01661023  RH  027%=      5-min Rain = 0
KJU1 131944Z 23005KT 17/M02 A301 RMK A01 T01671022  RH  027%=      5-min Rain = 0
KJU1 131945Z 21006KT 17/M02 A3009 RMK A01 T01701017  RH  028%=      5-min Rain = 0
KJU1 131946Z 24007KT 17/M02 A3009 RMK A01 T01711020  RH  027%=      5-min Rain = 0
KJU1 131947Z 25008KT 17/M02 A3009 RMK A01 T01711024  RH  026%=      5-min Rain = 0
KJU1 131948Z 26008KT 17/M03 A3009 RMK A01 T01691031  RH  025%=      5-min Rain = 0
KJU1 131949Z 25007KT 17/M03 A3009 RMK A01 T01671030  RH  026%=      5-min Rain = 0
KJU1 131950Z 24006KT 17/M02 A3009 RMK A01 T01681024  RH  027%=      5-min Rain = 0
KJU1 131951Z 27008KT 17/M02 A3009 RMK A01 T01711020  RH  027%=      5-min Rain = 0
KJU1 131952Z 27007KT 17/M03 A3009 RMK A01 T01711025  RH  026%=      5-min Rain = 0
KJU1 131953Z 19009KT 17/M02 A3009 RMK A01 T01701023  RH  027%=      5-min Rain = 0
KJU1 131954Z 22007G12KT 17/M03 A3009 RMK A01 T01701025  RH  026%=      5-min Rain = 0
KJU1 131955Z 22011KT 17/M03 A3009 RMK A01 T01711026  RH  026%=      5-min Rain = 0
KJU1 131956Z 22008KT 17/M03 A3009 RMK A01 T01711028  RH  025%=      5-min Rain = 0
KJU1 131957Z 22010KT 17/M02 A3009 RMK A01 T01721023  RH  026%=      5-min Rain = 0
KJU1 131958Z 21011KT 17/M02 A3009 RMK A01 T01721024  RH  026%=      5-min Rain = 0
KJU1 131959Z 22009KT 17/M03 A3009 RMK A01 T01701030  RH  025%=      5-min Rain = 0
KJU1 132000Z 22010KT 17/M03 A3009 RMK A01 T01691028  RH  026%=      5-min Rain = 0
KJU1 132001Z 21007KT 17/M03 A3009 RMK A01 T01691028  RH  026%=      5-min Rain = 0
KJU1 132002Z 23006KT 17/M02 A3009 RMK A01 T01711022  RH  027%=      5-min Rain = 0
KJU1 132003Z 23006KT 17/M02 A3009 RMK A01 T01731023  RH  026%=      5-min Rain = 0
KJU1 132004Z 23007KT 18/M02 A3009 RMK A01 T01751020  RH  026%=      5-min Rain = 0
KJU1 132005Z 21006KT 18/M02 A3009 RMK A01 T01761021  RH  026%=      5-min Rain = 0
KJU1 132006Z 22009KT 18/M02 A3009 RMK A01 T01751022  RH  026%=      5-min Rain = 0
KJU1 132007Z 24010KT 17/M03 A3009 RMK A01 T01741029  RH  025%=      5-min Rain = 0
KJU1 132008Z 23006KT 17/M03 A3009 RMK A01 T01721031  RH  025%=      5-min Rain = 0
KJU1 132009Z 23006KT 17/M03 A3009 RMK A01 T01721026  RH  026%=      5-min Rain = 0
KJU1 132010Z 22007KT 17/M02 A3009 RMK A01 T01741023  RH  026%=      5-min Rain = 0
KJU1 132011Z 22009KT 18/M03 A3009 RMK A01 T01751025  RH  026%=      5-min Rain = 0
KJU1 132012Z 24009KT 17/M03 A3009 RMK A01 T01731028  RH  025%=      5-min Rain = 0
KJU1 132013Z 25007KT 17/M03 A3009 RMK A01 T01721032  RH  025%=      5-min Rain = 0
KJU1 132014Z 25008KT 17/M03 A3009 RMK A01 T01731034  RH  024%=      5-min Rain = 0
KJU1 132015Z 25007G14KT 17/M03 A3009 RMK A01 T01731034  RH  024%=      5-min Rain = 0
KJU1 132016Z 26009KT 17/M03 A3009 RMK A01 T01721033  RH  024%=      5-min Rain = 0
KJU1 132017Z 27007KT 17/M03 A3009 RMK A01 T01701034  RH  024%=      5-min Rain = 0
KJU1 132018Z 22006G14KT 17/M03 A3009 RMK A01 T01701029  RH  026%=      5-min Rain = 0
KJU1 132019Z 21010KT 17/M03 A3009 RMK A01 T01721027  RH  026%=      5-min Rain = 0
KJU1 132020Z 22007KT 17/M03 A3009 RMK A01 T01721027  RH  025%=      5-min Rain = 0
KJU1 132021Z 20009KT 17/M03 A3009 RMK A01 T01731026  RH  026%=      5-min Rain = 0
KJU1 132022Z 22010KT 17/M03 A3009 RMK A01 T01741026  RH  026%=      5-min Rain = 0
KJU1 132023Z 22012KT 17/M03 A3009 RMK A01 T01741026  RH  025%=      5-min Rain = 0
KJU1 132024Z 22007KT 17/M03 A3009 RMK A01 T01731028  RH  025%=      5-min Rain = 0
KJU1 132025Z 24007KT 17/M03 A3009 RMK A01 T01721029  RH  025%=      5-min Rain = 0
KJU1 132026Z 25009KT 17/M03 A3009 RMK A01 T01711029  RH  025%=      5-min Rain = 0
KJU1 132027Z 24008KT 17/M03 A3008 RMK A01 T01721030  RH  025%=      5-min Rain = 0
KJU1 132028Z 23008KT 17/M03 A3008 RMK A01 T01721029  RH  025%=      5-min Rain = 0
KJU1 132029Z 20008KT 17/M03 A3008 RMK A01 T01741028  RH  025%=      5-min Rain = 0
KJU1 132030Z 22009KT 18/M03 A3008 RMK A01 T01751028  RH  025%=      5-min Rain = 0
KJU1 132031Z 24010G15KT 18/M03 A3008 RMK A01 T01771026  RH  025%=      5-min Rain = 0
KJU1 132032Z 22009KT 18/M03 A3008 RMK A01 T01771033  RH  024%=      5-min Rain = 0
KJU1 132033Z 24007KT 18/M03 A3008 RMK A01 T01751033  RH  024%=      5-min Rain = 0
KJU1 132034Z 22007G12KT 18/M03 A3008 RMK A01 T01751029  RH  025%=      5-min Rain = 0
KJU1 132035Z 22009KT 18/M03 A3008 RMK A01 T01761030  RH  024%=      5-min Rain = 0
KJU1 132036Z 22008KT 18/M03 A3008 RMK A01 T01751032  RH  024%=      5-min Rain = 0
KJU1 132037Z 23005KT 17/M03 A3008 RMK A01 T01741032  RH  024%=      5-min Rain = 0
KJU1 132038Z 24005KT 17/M03 A3008 RMK A01 T01741028  RH  025%=      5-min Rain = 0
KJU1 132039Z 24007KT 18/M03 A3008 RMK A01 T01771027  RH  025%=      5-min Rain = 0
KJU1 132040Z 24008KT 18/M03 A3008 RMK A01 T01781032  RH  024%=      5-min Rain = 0
KJU1 132041Z 26006KT 18/M03 A3008 RMK A01 T01781033  RH  023%=      5-min Rain = 0
KJU1 132042Z 24004KT 18/M03 A3007 RMK A01 T01781033  RH  024%=      5-min Rain = 0
KJU1 132043Z 24004KT 18/M04 A3007 RMK A01 T01771036  RH  023%=      5-min Rain = 0
KJU1 132044Z 23006KT 18/M03 A3007 RMK A01 T01761034  RH  024%=      5-min Rain = 0
KJU1 132045Z 22008KT 18/M03 A3007 RMK A01 T01761028  RH  025%=      5-min Rain = 0
KJU1 132046Z 21009KT 18/M03 A3007 RMK A01 T01771029  RH  025%=      5-min Rain = 0
KJU1 132047Z 21012KT 18/M03 A3007 RMK A01 T01771026  RH  025%=      5-min Rain = 0
KJU1 132048Z 23010KT 18/M03 A3007 RMK A01 T01761028  RH  025%=      5-min Rain = 0
KJU1 132049Z 24008KT 18/M03 A3007 RMK A01 T01751034  RH  024%=      5-min Rain = 0
KJU1 132050Z 23008KT 17/M03 A3007 RMK A01 T01741033  RH  024%=      5-min Rain = 0
KJU1 132051Z 21008KT 17/M03 A3007 RMK A01 T01741030  RH  025%=      5-min Rain = 0
KJU1 132052Z 20008KT 18/M03 A3007 RMK A01 T01751028  RH  025%=      5-min Rain = 0
KJU1 132053Z 19011KT 18/M03 A3007 RMK A01 T01761028  RH  025%=      5-min Rain = 0
KJU1 132054Z 20010KT 18/M03 A3007 RMK A01 T01761030  RH  024%=      5-min Rain = 0
KJU1 132055Z 22008KT 18/M03 A3007 RMK A01 T01751028  RH  025%=      5-min Rain = 0
KJU1 132056Z 22009KT 18/M03 A3007 RMK A01 T01771027  RH  025%=      5-min Rain = 0
KJU1 132057Z 20006KT 18/M03 A3007 RMK A01 T01771028  RH  025%=      5-min Rain = 0
KJU1 132058Z 19008KT 18/M03 A3007 RMK A01 T01771026  RH  025%=      5-min Rain = 0
KJU1 132059Z 22009KT 18/M03 A3007 RMK A01 T01781027  RH  025%=      5-min Rain = 0
KJU1 132100Z 22008KT 18/M03 A3007 RMK A01 T01781027  RH  024%=      5-min Rain = 0
KJU1 132101Z 21010KT 18/M03 A3007 RMK A01 T01791030  RH  024%=      5-min Rain = 0
KJU1 132102Z 21009KT 18/M03 A3006 RMK A01 T01791030  RH  024%=      5-min Rain = 0
KJU1 132103Z 21011KT 18/M03 A3006 RMK A01 T01791030  RH  024%=      5-min Rain = 0
KJU1 132104Z 21010KT 18/M03 A3006 RMK A01 T01781033  RH  024%=      5-min Rain = 0
KJU1 132105Z 21009KT 18/M03 A3006 RMK A01 T01771033  RH  024%=      5-min Rain = 0
KJU1 132106Z 21009KT 18/M03 A3006 RMK A01 T01771032  RH  024%=      5-min Rain = 0
KJU1 132107Z 21010KT 18/M03 A3006 RMK A01 T01771031  RH  024%=      5-min Rain = 0
KJU1 132108Z 23009KT 18/M03 A3006 RMK A01 T01771032  RH  024%=      5-min Rain = 0
KJU1 132109Z 21008G13KT 18/M03 A3006 RMK A01 T01761030  RH  024%=      5-min Rain = 0
KJU1 132110Z 20010KT 18/M03 A3006 RMK A01 T01771028  RH  025%=      5-min Rain = 0
KJU1 132111Z 20009KT 18/M03 A3006 RMK A01 T01771026  RH  025%=      5-min Rain = 0
KJU1 132112Z 22008KT 18/M03 A3006 RMK A01 T01781029  RH  024%=      5-min Rain = 0
KJU1 132113Z 22007KT 18/M03 A3006 RMK A01 T01771031  RH  024%=      5-min Rain = 0
KJU1 132114Z 21009KT 18/M03 A3006 RMK A01 T01771032  RH  024%=      5-min Rain = 0
KJU1 132115Z 22008G13KT 18/M03 A3006 RMK A01 T01781032  RH  024%=      5-min Rain = 0
KJU1 132116Z 22009KT 18/M03 A3006 RMK A01 T01781033  RH  024%=      5-min Rain = 0
KJU1 132117Z 22008KT 18/M04 A3006 RMK A01 T01781037  RH  023%=      5-min Rain = 0
KJU1 132118Z 23009KT 18/M04 A3006 RMK A01 T01771035  RH  023%=      5-min Rain = 0
KJU1 132119Z 23009KT 18/M04 A3005 RMK A01 T01781036  RH  023%=      5-min Rain = 0
KJU1 132120Z 23008KT 18/M04 A3005 RMK A01 T01781037  RH  023%=      5-min Rain = 0
KJU1 132121Z 23007KT 18/M04 A3005 RMK A01 T01781036  RH  023%=      5-min Rain = 0
KJU1 132122Z 24008KT 18/M04 A3005 RMK A01 T01781035  RH  023%=      5-min Rain = 0
KJU1 132123Z 22007KT 18/M03 A3005 RMK A01 T01781034  RH  023%=      5-min Rain = 0
KJU1 132124Z 24007KT 18/M03 A3005 RMK A01 T01791032  RH  024%=      5-min Rain = 0
KJU1 132125Z 24007KT 18/M03 A3005 RMK A01 T01801030  RH  024%=      5-min Rain = 0
KJU1 132126Z 23008KT 18/M03 A3005 RMK A01 T01801031  RH  023%=      5-min Rain = 0
KJU1 132127Z 22006KT 18/M03 A3005 RMK A01 T01801028  RH  024%=      5-min Rain = 0
KJU1 132128Z 21010KT 18/M03 A3005 RMK A01 T01811029  RH  024%=      5-min Rain = 0
KJU1 132129Z 21009KT 18/M03 A3005 RMK A01 T01811032  RH  023%=      5-min Rain = 0
KJU1 132130Z 23007KT 18/M03 A3005 RMK A01 T01801031  RH  024%=      5-min Rain = 0
KJU1 132131Z 24006KT 18/M03 A3005 RMK A01 T01801032  RH  023%=      5-min Rain = 0
KJU1 132132Z 24006KT 18/M03 A3005 RMK A01 T01811033  RH  023%=      5-min Rain = 0
KJU1 132133Z 22008KT 18/M04 A3005 RMK A01 T01811035  RH  023%=      5-min Rain = 0
KJU1 132134Z 20009KT 18/M03 A3005 RMK A01 T01811034  RH  023%=      5-min Rain = 0
KJU1 132135Z 19008KT 18/M04 A3005 RMK A01 T01801035  RH  023%=      5-min Rain = 0
KJU1 132136Z 21008KT 18/M03 A3005 RMK A01 T01791034  RH  023%=      5-min Rain = 0
KJU1 132137Z 23010KT 18/M03 A3005 RMK A01 T01791033  RH  023%=      5-min Rain = 0
KJU1 132138Z 22008KT 18/M03 A3005 RMK A01 T01791029  RH  024%=      5-min Rain = 0
KJU1 132139Z 21009KT 18/M03 A3005 RMK A01 T01801029  RH  024%=      5-min Rain = 0
KJU1 132140Z 20009KT 18/M03 A3004 RMK A01 T01801030  RH  024%=      5-min Rain = 0
KJU1 132141Z 19011KT 18/M03 A3004 RMK A01 T01781031  RH  024%=      5-min Rain = 0
KJU1 132142Z 20010KT 18/M03 A3004 RMK A01 T01781028  RH  024%=      5-min Rain = 0
KJU1 132143Z 20010KT 18/M03 A3004 RMK A01 T01781029  RH  024%=      5-min Rain = 0
KJU1 132144Z 21010KT 18/M03 A3004 RMK A01 T01781030  RH  024%=      5-min Rain = 0
KJU1 132145Z 21009KT 18/M03 A3004 RMK A01 T01781033  RH  024%=      5-min Rain = 0
KJU1 132146Z 21006KT 18/M03 A3004 RMK A01 T01791031  RH  024%=      5-min Rain = 0
KJU1 132147Z 22009KT 18/M03 A3004 RMK A01 T01801029  RH  024%=      5-min Rain = 0
KJU1 132148Z 22011KT 18/M03 A3004 RMK A01 T01821030  RH  024%=      5-min Rain = 0
KJU1 132149Z 23010KT 18/M04 A3004 RMK A01 T01811035  RH  023%=      5-min Rain = 0
KJU1 132150Z 23009KT 18/M04 A3004 RMK A01 T01801036  RH  023%=      5-min Rain = 0
KJU1 132151Z 21008KT 18/M03 A3004 RMK A01 T01791034  RH  023%=      5-min Rain = 0
KJU1 132152Z 21007KT 18/M04 A3004 RMK A01 T01791035  RH  023%=      5-min Rain = 0
KJU1 132153Z 22007KT 18/M03 A3004 RMK A01 T01791033  RH  023%=      5-min Rain = 0
KJU1 132154Z 22006KT 18/M03 A3004 RMK A01 T01801031  RH  024%=      5-min Rain = 0
KJU1 132155Z 22007KT 18/M04 A3004 RMK A01 T01801035  RH  023%=      5-min Rain = 0
KJU1 132156Z 22007KT 18/M03 A3004 RMK A01 T01801034  RH  023%=      5-min Rain = 0
KJU1 132157Z 24008KT 18/M03 A3004 RMK A01 T01801034  RH  023%=      5-min Rain = 0
KJU1 132158Z 22006KT 18/M03 A3004 RMK A01 T01811034  RH  023%=      5-min Rain = 0
KJU1 132159Z 23007KT 18/M03 A3004 RMK A01 T01821030  RH  024%=      5-min Rain = 0
KJU1 132200Z 22006KT 18/M03 A3004 RMK A01 T01821030  RH  023%=      5-min Rain = 0
KJU1 132201Z 22007KT 18/M03 A3004 RMK A01 T01831030  RH  023%=      5-min Rain = 0
KJU1 132202Z 21006KT 18/M03 A3004 RMK A01 T01831031  RH  023%=      5-min Rain = 0
KJU1 132203Z 21008G13KT 18/M03 A3004 RMK A01 T01831031  RH  023%=      5-min Rain = 0
KJU1 132204Z 21011KT 18/M03 A3004 RMK A01 T01831032  RH  023%=      5-min Rain = 0
KJU1 132205Z 21008KT 18/M03 A3004 RMK A01 T01811033  RH  023%=      5-min Rain = 0
KJU1 132206Z 21008KT 18/M03 A3004 RMK A01 T01811033  RH  023%=      5-min Rain = 0
KJU1 132207Z 22008KT 18/M03 A3004 RMK A01 T01801032  RH  023%=      5-min Rain = 0
KJU1 132208Z 21008KT 18/M03 A3004 RMK A01 T01811031  RH  024%=      5-min Rain = 0
KJU1 132209Z 20007KT 18/M03 A3004 RMK A01 T01811030  RH  024%=      5-min Rain = 0
KJU1 132210Z 21007KT 18/M03 A3004 RMK A01 T01811028  RH  024%=      5-min Rain = 0
KJU1 132211Z 22005KT 18/M03 A3004 RMK A01 T01821027  RH  024%=      5-min Rain = 0
KJU1 132212Z 21007KT 18/M03 A3004 RMK A01 T01831026  RH  024%=      5-min Rain = 0
KJU1 132213Z 21008KT 18/M03 A3004 RMK A01 T01831029  RH  023%=      5-min Rain = 0
KJU1 132214Z 22008KT 18/M03 A3004 RMK A01 T01831027  RH  024%=      5-min Rain = 0
KJU1 132215Z 23009KT 18/M03 A3003 RMK A01 T01821031  RH  023%=      5-min Rain = 0
KJU1 132216Z 22010KT 18/M03 A3003 RMK A01 T01811034  RH  023%=      5-min Rain = 0
KJU1 132217Z 21010KT 18/M04 A3003 RMK A01 T01801035  RH  023%=      5-min Rain = 0
KJU1 132218Z 21011KT 18/M03 A3003 RMK A01 T01801034  RH  023%=      5-min Rain = 0
KJU1 132219Z 21009KT 18/M04 A3003 RMK A01 T01791037  RH  023%=      5-min Rain = 0
KJU1 132220Z 20012KT 18/M04 A3003 RMK A01 T01791036  RH  023%=      5-min Rain = 0
KJU1 132221Z 21012KT 18/M03 A3003 RMK A01 T01791034  RH  023%=      5-min Rain = 0
KJU1 132222Z 22009KT 18/M04 A3003 RMK A01 T01791036  RH  023%=      5-min Rain = 0
KJU1 132223Z 23008KT 18/M03 A3003 RMK A01 T01791034  RH  023%=      5-min Rain = 0
KJU1 132224Z 22009KT 18/M03 A3003 RMK A01 T01801031  RH  024%=      5-min Rain = 0
KJU1 132225Z 22009KT 18/M03 A3003 RMK A01 T01801034  RH  023%=      5-min Rain = 0
KJU1 132226Z 20008KT 18/M03 A3003 RMK A01 T01801033  RH  023%=      5-min Rain = 0
KJU1 132227Z 20008KT 18/M03 A3003 RMK A01 T01811029  RH  024%=      5-min Rain = 0
KJU1 132228Z 21009KT 18/M03 A3003 RMK A01 T01811032  RH  023%=      5-min Rain = 0
KJU1 132229Z 21009KT 18/M03 A3003 RMK A01 T01801031  RH  024%=      5-min Rain = 0
KJU1 132230Z 20009KT 18/M03 A3003 RMK A01 T01801032  RH  024%=      5-min Rain = 0
KJU1 132231Z 21008KT 18/M03 A3003 RMK A01 T01791033  RH  023%=      5-min Rain = 0
KJU1 132232Z 21009KT 18/M03 A3003 RMK A01 T01791032  RH  023%=      5-min Rain = 0
KJU1 132233Z 21010KT 18/M04 A3003 RMK A01 T01771035  RH  023%=      5-min Rain = 0
KJU1 132234Z 20008KT 18/M04 A3003 RMK A01 T01761036  RH  023%=      5-min Rain = 0
KJU1 132235Z 21009KT 18/M03 A3003 RMK A01 T01751034  RH  024%=      5-min Rain = 0
KJU1 132236Z 22008KT 17/M03 A3003 RMK A01 T01741034  RH  024%=      5-min Rain = 0
KJU1 132237Z 21008KT 17/M03 A3003 RMK A01 T01741034  RH  024%=      5-min Rain = 0
KJU1 132238Z 20010KT 17/M03 A3003 RMK A01 T01741032  RH  024%=      5-min Rain = 0
KJU1 132239Z 22010KT 18/M03 A3003 RMK A01 T01751030  RH  024%=      5-min Rain = 0
KJU1 132240Z 20008KT 18/M03 A3003 RMK A01 T01761029  RH  025%=      5-min Rain = 0
KJU1 132241Z 21005KT 18/M03 A3003 RMK A01 T01761027  RH  025%=      5-min Rain = 0
KJU1 132242Z 21008KT 18/M03 A3003 RMK A01 T01771026  RH  025%=      5-min Rain = 0
KJU1 132243Z 20007KT 18/M03 A3003 RMK A01 T01771025  RH  025%=      5-min Rain = 0
KJU1 132244Z 21007KT 18/M02 A3003 RMK A01 T01771024  RH  025%=      5-min Rain = 0
KJU1 132245Z 21009KT 18/M03 A3003 RMK A01 T01771025  RH  025%=      5-min Rain = 0
KJU1 132246Z 22008G13KT 18/M03 A3003 RMK A01 T01781026  RH  025%=      5-min Rain = 0
KJU1 132247Z 20009KT 18/M03 A3003 RMK A01 T01781027  RH  025%=      5-min Rain = 0
KJU1 132248Z 21010KT 18/M03 A3003 RMK A01 T01771026  RH  025%=      5-min Rain = 0
KJU1 132249Z 21009KT 18/M03 A3003 RMK A01 T01761027  RH  025%=      5-min Rain = 0
KJU1 132250Z 22008KT 18/M03 A3003 RMK A01 T01761026  RH  025%=      5-min Rain = 0
KJU1 132251Z 21008KT 18/M03 A3003 RMK A01 T01761026  RH  025%=      5-min Rain = 0
KJU1 132252Z 23008G13KT 18/M03 A3003 RMK A01 T01761025  RH  025%=      5-min Rain = 0
KJU1 132253Z 21010KT 18/M03 A3003 RMK A01 T01761026  RH  025%=      5-min Rain = 0
KJU1 132254Z 21010KT 18/M03 A3003 RMK A01 T01751027  RH  025%=      5-min Rain = 0
KJU1 132255Z 21009KT 17/M03 A3003 RMK A01 T01741027  RH  025%=      5-min Rain = 0
KJU1 132256Z 21008KT 17/M03 A3003 RMK A01 T01741027  RH  025%=      5-min Rain = 0
KJU1 132257Z 21006KT 17/M03 A3003 RMK A01 T01741025  RH  026%=      5-min Rain = 0
KJU1 132258Z 23007KT 17/M02 A3003 RMK A01 T01741024  RH  026%=      5-min Rain = 0
KJU1 132259Z 23007KT 17/M03 A3003 RMK A01 T01741025  RH  026%=      5-min Rain = 0
KJU1 132300Z 23008KT 17/M03 A3003 RMK A01 T01741025  RH  026%=      5-min Rain = 0
KJU1 132301Z 22005KT 17/M02 A3003 RMK A01 T01741024  RH  026%=      5-min Rain = 0
KJU1 132302Z 22005KT 17/M02 A3003 RMK A01 T01731023  RH  026%=      5-min Rain = 0
KJU1 132303Z 22005KT 17/M02 A3003 RMK A01 T01731022  RH  026%=      5-min Rain = 0
KJU1 132304Z 23005KT 17/M02 A3003 RMK A01 T01731023  RH  026%=      5-min Rain = 0
KJU1 132305Z 23007KT 17/M02 A3003 RMK A01 T01731022  RH  026%=      5-min Rain = 0
KJU1 132306Z 23006KT 17/M02 A3003 RMK A01 T01741022  RH  026%=      5-min Rain = 0
KJU1 132307Z 22005KT 17/M02 A3003 RMK A01 T01731021  RH  026%=      5-min Rain = 0
KJU1 132308Z 23006KT 17/M02 A3003 RMK A01 T01731020  RH  027%=      5-min Rain = 0
KJU1 132309Z 22007KT 17/M02 A3003 RMK A01 T01731022  RH  026%=      5-min Rain = 0
KJU1 132310Z 22009KT 17/M02 A3003 RMK A01 T01721022  RH  027%=      5-min Rain = 0
KJU1 132311Z 21008KT 17/M02 A3002 RMK A01 T01711022  RH  027%=      5-min Rain = 0
KJU1 132312Z 23006KT 17/M02 A3002 RMK A01 T01701022  RH  027%=      5-min Rain = 0
KJU1 132313Z 22006KT 17/M02 A3003 RMK A01 T01701020  RH  027%=      5-min Rain = 0
KJU1 132314Z 22007KT 17/M02 A3003 RMK A01 T01701021  RH  027%=      5-min Rain = 0
KJU1 132315Z 23008KT 17/M02 A3003 RMK A01 T01691021  RH  027%=      5-min Rain = 0
KJU1 132316Z 23008KT 17/M02 A3003 RMK A01 T01691021  RH  027%=      5-min Rain = 0
KJU1 132317Z 23008KT 17/M02 A3003 RMK A01 T01681022  RH  027%=      5-min Rain = 0
KJU1 132318Z 22007KT 17/M02 A3002 RMK A01 T01671022  RH  027%=      5-min Rain = 0
KJU1 132319Z 21007KT 17/M02 A3002 RMK A01 T01671023  RH  027%=      5-min Rain = 0
KJU1 132320Z 21011G17KT 17/M02 A3002 RMK A01 T01661022  RH  027%=      5-min Rain = 0
KJU1 132321Z 21010G15KT 17/M02 A3002 RMK A01 T01661024  RH  027%=      5-min Rain = 0
KJU1 132322Z 22008KT 17/M02 A3002 RMK A01 T01661024  RH  027%=      5-min Rain = 0
KJU1 132323Z 22007KT 17/M02 A3002 RMK A01 T01651024  RH  027%=      5-min Rain = 0
KJU1 132324Z 22010KT 17/M02 A3002 RMK A01 T01651024  RH  027%=      5-min Rain = 0
KJU1 132325Z 22010KT 17/M03 A3002 RMK A01 T01651025  RH  027%=      5-min Rain = 0
KJU1 132326Z 22009KT 17/M03 A3002 RMK A01 T01651025  RH  027%=      5-min Rain = 0
KJU1 132327Z 22008KT 16/M03 A3002 RMK A01 T01641025  RH  027%=      5-min Rain = 0
KJU1 132328Z 23006KT 16/M03 A3002 RMK A01 T01641025  RH  027%=      5-min Rain = 0
KJU1 132329Z 22008KT 16/M03 A3002 RMK A01 T01631025  RH  027%=      5-min Rain = 0
KJU1 132330Z 22006KT 16/M02 A3003 RMK A01 T01631024  RH  028%=      5-min Rain = 0
KJU1 132331Z 22006KT 16/M02 A3003 RMK A01 T01621024  RH  028%=      5-min Rain = 0
KJU1 132332Z 23006KT 16/M02 A3003 RMK A01 T01621024  RH  028%=      5-min Rain = 0
KJU1 132333Z 23008KT 16/M02 A3002 RMK A01 T01611024  RH  028%=      5-min Rain = 0
KJU1 132334Z 22005KT 16/M02 A3002 RMK A01 T01611024  RH  028%=      5-min Rain = 0
KJU1 132335Z 22005KT 16/M02 A3002 RMK A01 T01601023  RH  028%=      5-min Rain = 0
KJU1 132336Z 22004KT 16/M02 A3002 RMK A01 T01591023  RH  029%=      5-min Rain = 0
KJU1 132337Z 23006KT 16/M02 A3003 RMK A01 T01581022  RH  029%=      5-min Rain = 0
KJU1 132338Z 20005KT 16/M02 A3003 RMK A01 T01571022  RH  029%=      5-min Rain = 0
KJU1 132339Z 22007KT 16/M02 A3002 RMK A01 T01561021  RH  030%=      5-min Rain = 0
KJU1 132340Z 21008KT 16/M02 A3002 RMK A01 T01551022  RH  029%=      5-min Rain = 0
KJU1 132341Z 21006KT 16/M02 A3002 RMK A01 T01551022  RH  029%=      5-min Rain = 0
KJU1 132342Z 22006KT 16/M02 A3002 RMK A01 T01561022  RH  029%=      5-min Rain = 0
KJU1 132343Z 21006KT 16/M02 A3003 RMK A01 T01551022  RH  030%=      5-min Rain = 0
KJU1 132344Z 21006KT 15/M02 A3003 RMK A01 T01541023  RH  030%=      5-min Rain = 0
KJU1 132345Z 22005KT 15/M02 A3003 RMK A01 T01541022  RH  030%=      5-min Rain = 0
KJU1 132346Z 23005KT 15/M02 A3003 RMK A01 T01531022  RH  030%=      5-min Rain = 0
KJU1 132347Z 22006KT 15/M02 A3003 RMK A01 T01521022  RH  030%=      5-min Rain = 0
KJU1 132348Z 23003KT 15/M02 A3003 RMK A01 T01511022  RH  030%=      5-min Rain = 0
KJU1 132349Z 22005KT 15/M02 A3003 RMK A01 T01501022  RH  031%=      5-min Rain = 0
KJU1 132350Z 22005KT 15/M02 A3003 RMK A01 T01491023  RH  031%=      5-min Rain = 0
KJU1 132351Z 22004KT 15/M02 A3003 RMK A01 T01491021  RH  031%=      5-min Rain = 0
KJU1 132352Z 22004KT 15/M02 A3003 RMK A01 T01471022  RH  031%=      5-min Rain = 0
KJU1 132353Z 22005KT 15/M02 A3003 RMK A01 T01461022  RH  031%=      5-min Rain = 0
KJU1 132354Z 21005KT 15/M02 A3003 RMK A01 T01451021  RH  032%=      5-min Rain = 0
KJU1 132355Z 21005KT 14/M02 A3003 RMK A01 T01441021  RH  032%=      5-min Rain = 0
KJU1 132356Z 21005KT 14/M02 A3002 RMK A01 T01431021  RH  032%=      5-min Rain = 0
KJU1 132357Z 20006KT 14/M02 A3002 RMK A01 T01431021  RH  032%=      5-min Rain = 0
KJU1 132358Z 21004KT 14/M02 A3002 RMK A01 T01421021  RH  032%=      5-min Rain = 0
KJU1 132359Z 21005KT 14/M02 A3002 RMK A01 T01411022  RH  032%=      5-min Rain = 0
KJU1 140000Z 21004KT 14/M02 A3002 RMK A01 T01401022  RH  033%=      5-min Rain = 0
KJU1 140001Z 21006KT 14/M02 A3002 RMK A01 T01391022  RH  033%=      5-min Rain = 0
KJU1 140002Z 21006KT 14/M02 A3002 RMK A01 T01391022  RH  033%=      5-min Rain = 0
KJU1 140003Z 21005KT 14/M02 A3002 RMK A01 T01401022  RH  033%=      5-min Rain = 0
KJU1 140004Z 21005KT 14/M02 A3002 RMK A01 T01391022  RH  033%=      5-min Rain = 0
KJU1 140005Z 22005KT 14/M02 A3002 RMK A01 T01381022  RH  033%=      5-min Rain = 0
KJU1 140006Z 22005KT 14/M02 A3002 RMK A01 T01371022  RH  033%=      5-min Rain = 0
KJU1 140007Z 22005KT 14/M02 A3002 RMK A01 T01371023  RH  033%=      5-min Rain = 0
KJU1 140008Z 23004KT 14/M02 A3002 RMK A01 T01361023  RH  033%=      5-min Rain = 0
KJU1 140009Z 23005KT 14/M02 A3002 RMK A01 T01361022  RH  033%=      5-min Rain = 0
KJU1 140010Z 22005KT 14/M02 A3002 RMK A01 T01361022  RH  033%=      5-min Rain = 0
KJU1 140011Z 22004KT 14/M02 A3002 RMK A01 T01361021  RH  034%=      5-min Rain = 0
KJU1 140012Z 22005KT 14/M02 A3002 RMK A01 T01351021  RH  034%=      5-min Rain = 0
KJU1 140013Z 22005KT 13/M02 A3002 RMK A01 T01341021  RH  034%=      5-min Rain = 0
KJU1 140014Z 22005KT 13/M02 A3002 RMK A01 T01331021  RH  034%=      5-min Rain = 0
KJU1 140015Z 21004KT 13/M02 A3002 RMK A01 T01321022  RH  034%=      5-min Rain = 0
KJU1 140016Z 22005KT 13/M02 A3002 RMK A01 T01311022  RH  034%=      5-min Rain = 0
KJU1 140017Z 21004KT 13/M02 A3002 RMK A01 T01311023  RH  034%=      5-min Rain = 0
KJU1 140018Z 21004KT 13/M02 A3002 RMK A01 T01301023  RH  035%=      5-min Rain = 0
KJU1 140019Z 20005KT 13/M02 A3002 RMK A01 T01291023  RH  035%=      5-min Rain = 0
KJU1 140020Z 20004KT 13/M02 A3002 RMK A01 T01291023  RH  035%=      5-min Rain = 0
KJU1 140021Z 20004KT 13/M02 A3001 RMK A01 T01281023  RH  035%=      5-min Rain = 0
KJU1 140022Z 21005KT 13/M02 A3002 RMK A01 T01271024  RH  035%=      5-min Rain = 0
KJU1 140023Z 21004KT 13/M02 A3002 RMK A01 T01261024  RH  035%=      5-min Rain = 0
KJU1 140024Z 21004KT 13/M02 A3002 RMK A01 T01261024  RH  035%=      5-min Rain = 0
KJU1 140025Z 21004KT 13/M02 A3002 RMK A01 T01251024  RH  035%=      5-min Rain = 0
KJU1 140026Z 23004KT 13/M03 A3002 RMK A01 T01251025  RH  035%=      5-min Rain = 0
KJU1 140027Z 22003KT 13/M02 A3002 RMK A01 T01251024  RH  035%=      5-min Rain = 0
KJU1 140028Z 22004KT 13/M02 A3002 RMK A01 T01251024  RH  035%=      5-min Rain = 0
KJU1 140029Z 22004KT 13/M02 A3002 RMK A01 T01251024  RH  035%=      5-min Rain = 0
KJU1 140030Z 22005KT 13/M02 A3002 RMK A01 T01251024  RH  035%=      5-min Rain = 0
KJU1 140031Z 22005KT 13/M02 A3002 RMK A01 T01251023  RH  036%=      5-min Rain = 0
KJU1 140032Z 22005KT 12/M02 A3002 RMK A01 T01241023  RH  036%=      5-min Rain = 0
KJU1 140033Z 22005KT 12/M02 A3002 RMK A01 T01241022  RH  036%=      5-min Rain = 0
KJU1 140034Z 22004KT 12/M02 A3002 RMK A01 T01231022  RH  036%=      5-min Rain = 0
KJU1 140035Z 22004KT 12/M02 A3002 RMK A01 T01221022  RH  037%=      5-min Rain = 0
KJU1 140036Z 22004KT 12/M02 A3002 RMK A01 T01211022  RH  037%=      5-min Rain = 0
KJU1 140037Z 22004KT 12/M02 A3002 RMK A01 T01201022  RH  037%=      5-min Rain = 0
KJU1 140038Z 21004KT 12/M02 A3002 RMK A01 T01191022  RH  037%=      5-min Rain = 0
KJU1 140039Z 21004KT 12/M02 A3002 RMK A01 T01171024  RH  037%=      5-min Rain = 0
KJU1 140040Z 21004KT 11/M03 A3001 RMK A01 T01141025  RH  038%=      5-min Rain = 0
KJU1 140041Z 20004KT 11/M03 A3001 RMK A01 T01131025  RH  038%=      5-min Rain = 0
KJU1 140042Z 21004KT 11/M03 A3001 RMK A01 T01121025  RH  038%=      5-min Rain = 0
KJU1 140043Z 20004KT 11/M03 A3001 RMK A01 T01111025  RH  039%=      5-min Rain = 0
KJU1 140044Z 20004KT 11/M03 A3001 RMK A01 T01091025  RH  039%=      5-min Rain = 0
KJU1 140045Z 20004KT 11/M03 A3001 RMK A01 T01081025  RH  039%=      5-min Rain = 0
KJU1 140046Z 20004KT 11/M03 A3001 RMK A01 T01081025  RH  039%=      5-min Rain = 0
KJU1 140047Z 20004KT 11/M02 A3001 RMK A01 T01081024  RH  040%=      5-min Rain = 0
KJU1 140048Z 20004KT 11/M03 A3001 RMK A01 T01071025  RH  040%=      5-min Rain = 0
KJU1 140049Z 20004KT 11/M02 A3001 RMK A01 T01071024  RH  040%=      5-min Rain = 0
KJU1 140050Z 20004KT 11/M03 A3001 RMK A01 T01061025  RH  040%=      5-min Rain = 0
KJU1 140051Z 19004KT 11/M03 A3001 RMK A01 T01061025  RH  040%=      5-min Rain = 0
KJU1 140052Z 19004KT 11/M02 A3001 RMK A01 T01061024  RH  040%=      5-min Rain = 0
KJU1 140053Z 20004KT 11/M03 A3001 RMK A01 T01051025  RH  040%=      5-min Rain = 0
KJU1 140054Z 20004KT 10/M03 A3001 RMK A01 T01031026  RH  040%=      5-min Rain = 0
KJU1 140055Z 20004KT 10/M03 A3001 RMK A01 T01011026  RH  041%=      5-min Rain = 0
KJU1 140056Z 19004KT 10/M03 A3001 RMK A01 T01001026  RH  041%=      5-min Rain = 0
KJU1 140057Z 19003KT 10/M03 A3001 RMK A01 T00991025  RH  042%=      5-min Rain = 0
KJU1 140058Z 19003KT 10/M02 A3001 RMK A01 T01001024  RH  042%=      5-min Rain = 0
KJU1 140059Z 19003KT 10/M03 A3001 RMK A01 T01001025  RH  042%=      5-min Rain = 0
KJU1 140100Z 19003KT 10/M03 A3001 RMK A01 T00951027  RH  042%=      5-min Rain = 0
KJU1 140101Z 19003KT 09/M03 A3001 RMK A01 T00911028  RH  043%=      5-min Rain = 0
KJU1 140102Z 19003KT 09/M03 A3001 RMK A01 T00881028  RH  044%=      5-min Rain = 0
KJU1 140103Z 20002KT 08/M03 A3001 RMK A01 T00821030  RH  045%=      5-min Rain = 0
KJU1 140104Z 20001KT 08/M03 A3001 RMK A01 T00771031  RH  046%=      5-min Rain = 0
KJU1 140105Z 20001KT 08/M03 A3001 RMK A01 T00761028  RH  048%=      5-min Rain = 0
KJU1 140106Z 22001KT 08/M03 A3001 RMK A01 T00751028  RH  048%=      5-min Rain = 0
KJU1 140107Z 22002KT 07/M03 A3001 RMK A01 T00731028  RH  049%=      5-min Rain = 0
KJU1 140108Z 21002KT 07/M03 A3001 RMK A01 T00721027  RH  049%=      5-min Rain = 0
KJU1 140109Z 20002KT 07/M03 A3001 RMK A01 T00731025  RH  050%=      5-min Rain = 0
KJU1 140110Z 20002KT 08/M03 A3001 RMK A01 T00761025  RH  049%=      5-min Rain = 0
KJU1 140111Z 19002KT 08/M03 A3001 RMK A01 T00761025  RH  049%=      5-min Rain = 0
KJU1 140112Z 18002KT 08/M02 A30 RMK A01 T00771024  RH  049%=      5-min Rain = 0
KJU1 140113Z 18002KT 08/M02 A30 RMK A01 T00791024  RH  048%=      5-min Rain = 0
KJU1 140114Z 17003KT 08/M02 A30 RMK A01 T00811023  RH  048%=      5-min Rain = 0
KJU1 140115Z 17003KT 08/M03 A30 RMK A01 T00811025  RH  047%=      5-min Rain = 0
KJU1 140116Z 17003KT 07/M03 A30 RMK A01 T00721031  RH  048%=      5-min Rain = 0
KJU1 140117Z 17003KT 06/M03 A30 RMK A01 T00641033  RH  050%=      5-min Rain = 0
KJU1 140118Z 17003KT 06/M03 A30 RMK A01 T00581033  RH  052%=      5-min Rain = 0
KJU1 140119Z 17003KT 06/M03 A30 RMK A01 T00571031  RH  053%=      5-min Rain = 0
KJU1 140120Z 17003KT 06/M03 A30 RMK A01 T00571030  RH  054%=      5-min Rain = 0
KJU1 140121Z 18003KT 06/M03 A30 RMK A01 T00581027  RH  054%=      5-min Rain = 0
KJU1 140122Z 18003KT 06/M03 A30 RMK A01 T00621025  RH  054%=      5-min Rain = 0
KJU1 140123Z 17002KT 07/M02 A30 RMK A01 T00651024  RH  053%=      5-min Rain = 0
KJU1 140124Z 18002KT 07/M02 A30 RMK A01 T00681023  RH  052%=      5-min Rain = 0
KJU1 140125Z 18002KT 07/M02 A30 RMK A01 T00701024  RH  051%=      5-min Rain = 0
KJU1 140126Z 19002KT 07/M02 A30 RMK A01 T00711024  RH  051%=      5-min Rain = 0
KJU1 140127Z 20002KT 07/M02 A30 RMK A01 T00731024  RH  050%=      5-min Rain = 0
KJU1 140128Z 21001KT 07/M03 A30 RMK A01 T00741025  RH  050%=      5-min Rain = 0
KJU1 140129Z 20002KT 07/M03 A30 RMK A01 T00731026  RH  049%=      5-min Rain = 0
KJU1 140130Z 21002KT 07/M03 A30 RMK A01 T00711028  RH  049%=      5-min Rain = 0
KJU1 140131Z 22002KT 07/M03 A30 RMK A01 T00691027  RH  050%=      5-min Rain = 0
KJU1 140132Z 22002KT 07/M03 A30 RMK A01 T00691027  RH  050%=      5-min Rain = 0
KJU1 140133Z 22002KT 07/M03 A30 RMK A01 T00681027  RH  051%=      5-min Rain = 0
KJU1 140134Z 23002KT 07/M03 A30 RMK A01 T00691027  RH  051%=      5-min Rain = 0
KJU1 140135Z 23002KT 07/M03 A30 RMK A01 T00691026  RH  051%=      5-min Rain = 0
KJU1 140136Z 24001KT 07/M03 A30 RMK A01 T00681027  RH  051%=      5-min Rain = 0
KJU1 140137Z 25001KT 07/M03 A30 RMK A01 T00671028  RH  051%=      5-min Rain = 0
KJU1 140138Z 25002KT 07/M03 A30 RMK A01 T00661029  RH  051%=      5-min Rain = 0
KJU1 140139Z 24001KT 07/M03 A30 RMK A01 T00651030  RH  051%=      5-min Rain = 0
KJU1 140140Z 22001KT 06/M03 A30 RMK A01 T00631029  RH  052%=      5-min Rain = 0
KJU1 140141Z 22001KT 06/M03 A30 RMK A01 T00631028  RH  052%=      5-min Rain = 0
KJU1 140142Z 23001KT 06/M03 A30 RMK A01 T00641028  RH  052%=      5-min Rain = 0
KJU1 140143Z 23001KT 06/M03 A30 RMK A01 T00641029  RH  052%=      5-min Rain = 0
KJU1 140144Z 23000KT 06/M03 A30 RMK A01 T00611031  RH  052%=      5-min Rain = 0
KJU1 140145Z 00000KT 06/M03 A30 RMK A01 T00581031  RH  053%=      5-min Rain = 0
KJU1 140146Z 20001KT 06/M03 A30 RMK A01 T00561031  RH  053%=      5-min Rain = 0
KJU1 140147Z 20001KT 05/M03 A30 RMK A01 T00541033  RH  054%=      5-min Rain = 0
KJU1 140148Z 20002KT 05/M03 A30 RMK A01 T00521031  RH  055%=      5-min Rain = 0
KJU1 140149Z 20002KT 06/M03 A30 RMK A01 T00551030  RH  054%=      5-min Rain = 0
KJU1 140150Z 20003KT 05/M03 A30 RMK A01 T00541032  RH  054%=      5-min Rain = 0
KJU1 140151Z 20003KT 05/M03 A30 RMK A01 T00521032  RH  054%=      5-min Rain = 0
KJU1 140152Z 19003KT 05/M03 A30 RMK A01 T00541031  RH  054%=      5-min Rain = 0
KJU1 140153Z 18003KT 06/M03 A30 RMK A01 T00551031  RH  054%=      5-min Rain = 0
KJU1 140154Z 19003KT 05/M03 A30 RMK A01 T00541031  RH  054%=      5-min Rain = 0
KJU1 140155Z 18004KT 05/M03 A30 RMK A01 T00511033  RH  055%=      5-min Rain = 0
KJU1 140156Z 18004KT 05/M03 A30 RMK A01 T00491032  RH  055%=      5-min Rain = 0
KJU1 140157Z 18005KT 05/M03 A30 RMK A01 T00491030  RH  056%=      5-min Rain = 0
KJU1 140158Z 18005KT 06/M03 A30 RMK A01 T00551027  RH  055%=      5-min Rain = 0
KJU1 140159Z 18005KT 06/M03 A30 RMK A01 T00551029  RH  055%=      5-min Rain = 0
KJU1 140200Z 18005KT 06/M03 A30 RMK A01 T00571026  RH  055%=      5-min Rain = 0
KJU1 140201Z 18006KT 06/M03 A30 RMK A01 T00611026  RH  054%=      5-min Rain = 0
KJU1 140202Z 18006KT 06/M03 A30 RMK A01 T00621026  RH  053%=      5-min Rain = 0
KJU1 140203Z 18006KT 07/M02 A30 RMK A01 T00661024  RH  052%=      5-min Rain = 0
KJU1 140204Z 18006KT 07/M02 A30 RMK A01 T00711023  RH  051%=      5-min Rain = 0
KJU1 140205Z 19006KT 07/M02 A30 RMK A01 T00741023  RH  050%=      5-min Rain = 0
KJU1 140206Z 18005KT 08/M02 A30 RMK A01 T00771023  RH  049%=      5-min Rain = 0
KJU1 140207Z 17006KT 08/M02 A30 RMK A01 T00771024  RH  049%=      5-min Rain = 0
KJU1 140208Z 17005KT 08/M02 A30 RMK A01 T00771024  RH  049%=      5-min Rain = 0
KJU1 140209Z 17005KT 08/M03 A30 RMK A01 T00761026  RH  048%=      5-min Rain = 0
KJU1 140210Z 17005KT 07/M03 A30 RMK A01 T00741026  RH  049%=      5-min Rain = 0
KJU1 140211Z 17006KT 07/M03 A30 RMK A01 T00731026  RH  049%=      5-min Rain = 0
KJU1 140212Z 17006KT 07/M03 A30 RMK A01 T00731026  RH  049%=      5-min Rain = 0
KJU1 140213Z 18006KT 07/M03 A30 RMK A01 T00741026  RH  049%=      5-min Rain = 0
KJU1 140214Z 18006KT 07/M03 A30 RMK A01 T00741025  RH  049%=      5-min Rain = 0
KJU1 140215Z 18006KT 08/M02 A30 RMK A01 T00751024  RH  049%=      5-min Rain = 0
KJU1 140216Z 18006KT 08/M02 A30 RMK A01 T00751024  RH  049%=      5-min Rain = 0
KJU1 140217Z 18006KT 08/M02 A30 RMK A01 T00761024  RH  049%=      5-min Rain = 0
KJU1 140218Z 19006KT 08/M02 A30 RMK A01 T00761024  RH  049%=      5-min Rain = 0
KJU1 140219Z 18006KT 08/M02 A30 RMK A01 T00771023  RH  049%=      5-min Rain = 0
KJU1 140220Z 18006KT 08/M02 A30 RMK A01 T00771023  RH  049%=      5-min Rain = 0
KJU1 140221Z 18005KT 08/M02 A30 RMK A01 T00771023  RH  049%=      5-min Rain = 0
KJU1 140222Z 19006KT 08/M02 A30 RMK A01 T00771023  RH  049%=      5-min Rain = 0
KJU1 140223Z 18006KT 08/M02 A30 RMK A01 T00771023  RH  049%=      5-min Rain = 0
KJU1 140224Z 18005KT 08/M02 A30 RMK A01 T00781023  RH  049%=      5-min Rain = 0
KJU1 140225Z 18005KT 08/M02 A30 RMK A01 T00791023  RH  049%=      5-min Rain = 0
KJU1 140226Z 18005KT 08/M02 A30 RMK A01 T00781023  RH  049%=      5-min Rain = 0
KJU1 140227Z 18005KT 08/M02 A30 RMK A01 T00791023  RH  049%=      5-min Rain = 0
KJU1 140228Z 17005KT 08/M02 A30 RMK A01 T00791023  RH  048%=      5-min Rain = 0
KJU1 140229Z 18005KT 08/M02 A30 RMK A01 T00791023  RH  048%=      5-min Rain = 0
KJU1 140230Z 18004KT 08/M02 A30 RMK A01 T00791024  RH  048%=      5-min Rain = 0
KJU1 140231Z 18005KT 08/M02 A30 RMK A01 T00791024  RH  048%=      5-min Rain = 0
KJU1 140232Z 18005KT 08/M02 A30 RMK A01 T00791024  RH  048%=      5-min Rain = 0
KJU1 140233Z 17004KT 08/M02 A30 RMK A01 T00791024  RH  048%=      5-min Rain = 0
KJU1 140234Z 18004KT 08/M03 A30 RMK A01 T00791025  RH  048%=      5-min Rain = 0
KJU1 140235Z 17005KT 08/M03 A30 RMK A01 T00771025  RH  048%=      5-min Rain = 0
KJU1 140236Z 18004KT 08/M03 A30 RMK A01 T00761025  RH  049%=      5-min Rain = 0
KJU1 140237Z 18004KT 08/M03 A30 RMK A01 T00761025  RH  049%=      5-min Rain = 0
KJU1 140238Z 18004KT 08/M03 A30 RMK A01 T00761025  RH  049%=      5-min Rain = 0
KJU1 140239Z 18004KT 08/M03 A30 RMK A01 T00761025  RH  049%=      5-min Rain = 0
KJU1 140240Z 18004KT 08/M03 A30 RMK A01 T00751025  RH  049%=      5-min Rain = 0
KJU1 140241Z 17005KT 08/M03 A30 RMK A01 T00751025  RH  049%=      5-min Rain = 0
KJU1 140242Z 17005KT 08/M03 A30 RMK A01 T00761025  RH  049%=      5-min Rain = 0
KJU1 140243Z 16004KT 08/M03 A30 RMK A01 T00771025  RH  048%=      5-min Rain = 0
KJU1 140244Z 18005KT 08/M03 A30 RMK A01 T00771026  RH  048%=      5-min Rain = 0
KJU1 140245Z 18006KT 08/M03 A30 RMK A01 T00761026  RH  048%=      5-min Rain = 0
KJU1 140246Z 18006KT 07/M03 A30 RMK A01 T00721028  RH  049%=      5-min Rain = 0
KJU1 140247Z 18006KT 07/M03 A30 RMK A01 T00681028  RH  050%=      5-min Rain = 0
KJU1 140248Z 19006KT 07/M03 A30 RMK A01 T00671027  RH  051%=      5-min Rain = 0
KJU1 140249Z 18006KT 07/M03 A30 RMK A01 T00681026  RH  051%=      5-min Rain = 0
KJU1 140250Z 18007KT 07/M03 A30 RMK A01 T00671026  RH  051%=      5-min Rain = 0
KJU1 140251Z 18007KT 07/M03 A30 RMK A01 T00671025  RH  052%=      5-min Rain = 0
KJU1 140252Z 18006KT 07/M03 A30 RMK A01 T00671025  RH  052%=      5-min Rain = 0
KJU1 140253Z 18006KT 07/M03 A30 RMK A01 T00681025  RH  052%=      5-min Rain = 0
KJU1 140254Z 18006KT 07/M03 A30 RMK A01 T00671025  RH  052%=      5-min Rain = 0
KJU1 140255Z 18006KT 07/M02 A30 RMK A01 T00671024  RH  052%=      5-min Rain = 0
KJU1 140256Z 18006KT 07/M02 A30 RMK A01 T00671024  RH  052%=      5-min Rain = 0
KJU1 140257Z 18006KT 07/M02 A30 RMK A01 T00671024  RH  052%=      5-min Rain = 0
KJU1 140258Z 18005KT 07/M02 A30 RMK A01 T00681024  RH  052%=      5-min Rain = 0
KJU1 140259Z 17006KT 07/M02 A30 RMK A01 T00681024  RH  052%=      5-min Rain = 0
KJU1 140300Z 17005KT 07/M02 A30 RMK A01 T00691023  RH  052%=      5-min Rain = 0
KJU1 140301Z 18006KT 07/M02 A30 RMK A01 T00691023  RH  052%=      5-min Rain = 0
KJU1 140302Z 17005KT 07/M02 A30 RMK A01 T00691024  RH  052%=      5-min Rain = 0
KJU1 140303Z 17006KT 07/M02 A30 RMK A01 T00691024  RH  052%=      5-min Rain = 0
KJU1 140304Z 16006KT 07/M02 A30 RMK A01 T00681024  RH  052%=      5-min Rain = 0
KJU1 140305Z 16005KT 07/M02 A30 RMK A01 T00681024  RH  052%=      5-min Rain = 0
KJU1 140306Z 17005KT 07/M02 A30 RMK A01 T00681024  RH  052%=      5-min Rain = 0
KJU1 140307Z 16005KT 07/M02 A30 RMK A01 T00671024  RH  052%=      5-min Rain = 0
KJU1 140308Z 16005KT 07/M02 A30 RMK A01 T00661024  RH  052%=      5-min Rain = 0
KJU1 140309Z 16005KT 07/M03 A30 RMK A01 T00661025  RH  053%=      5-min Rain = 0
KJU1 140310Z 16005KT 07/M02 A30 RMK A01 T00661024  RH  052%=      5-min Rain = 0
KJU1 140311Z 16005KT 07/M03 A30 RMK A01 T00661025  RH  052%=      5-min Rain = 0
KJU1 140312Z 17006KT 07/M03 A30 RMK A01 T00671025  RH  052%=      5-min Rain = 0
KJU1 140313Z 17005KT 07/M03 A30 RMK A01 T00671025  RH  052%=      5-min Rain = 0
KJU1 140314Z 17005KT 07/M02 A30 RMK A01 T00671024  RH  052%=      5-min Rain = 0
KJU1 140315Z 17006KT 07/M02 A30 RMK A01 T00671024  RH  052%=      5-min Rain = 0
KJU1 140316Z 17006KT 07/M02 A30 RMK A01 T00671024  RH  052%=      5-min Rain = 0
KJU1 140317Z 16006KT 07/M02 A30 RMK A01 T00671023  RH  053%=      5-min Rain = 0
KJU1 140318Z 17005KT 07/M02 A30 RMK A01 T00661023  RH  053%=      5-min Rain = 0
KJU1 140319Z 17005KT 07/M02 A30 RMK A01 T00651024  RH  053%=      5-min Rain = 0
KJU1 140320Z 17005KT 06/M02 A30 RMK A01 T00641024  RH  053%=      5-min Rain = 0
KJU1 140321Z 17005KT 06/M02 A30 RMK A01 T00631024  RH  054%=      5-min Rain = 0
KJU1 140322Z 18005KT 06/M02 A30 RMK A01 T00631024  RH  054%=      5-min Rain = 0
KJU1 140323Z 18005KT 06/M02 A30 RMK A01 T00631023  RH  054%=      5-min Rain = 0
KJU1 140324Z 17005KT 06/M02 A30 RMK A01 T00631024  RH  054%=      5-min Rain = 0
KJU1 140325Z 17005KT 06/M02 A30 RMK A01 T00631024  RH  054%=      5-min Rain = 0
KJU1 140326Z 18004KT 06/M02 A30 RMK A01 T00641023  RH  054%=      5-min Rain = 0
KJU1 140327Z 18004KT 06/M02 A30 RMK A01 T00641023  RH  053%=      5-min Rain = 0
KJU1 140328Z 17005KT 06/M02 A30 RMK A01 T00641024  RH  054%=      5-min Rain = 0
KJU1 140329Z 18005KT 06/M02 A30 RMK A01 T00641024  RH  053%=      5-min Rain = 0
KJU1 140330Z 18004KT 06/M02 A30 RMK A01 T00641024  RH  054%=      5-min Rain = 0
KJU1 140331Z 18005KT 06/M02 A30 RMK A01 T00631024  RH  053%=      5-min Rain = 0
KJU1 140332Z 18004KT 06/M02 A30 RMK A01 T00641024  RH  053%=      5-min Rain = 0
KJU1 140333Z 17004KT 07/M02 A30 RMK A01 T00651024  RH  053%=      5-min Rain = 0
KJU1 140334Z 18004KT 06/M03 A30 RMK A01 T00641025  RH  053%=      5-min Rain = 0
KJU1 140335Z 17004KT 06/M03 A30 RMK A01 T00641025  RH  053%=      5-min Rain = 0
KJU1 140336Z 17004KT 06/M03 A30 RMK A01 T00641025  RH  053%=      5-min Rain = 0
KJU1 140337Z 18005KT 06/M03 A30 RMK A01 T00631025  RH  053%=      5-min Rain = 0
KJU1 140338Z 17004KT 06/M03 A30 RMK A01 T00631025  RH  053%=      5-min Rain = 0
KJU1 140339Z 16003KT 06/M03 A30 RMK A01 T00641025  RH  053%=      5-min Rain = 0
KJU1 140340Z 17004KT 06/M03 A30 RMK A01 T00631026  RH  053%=      5-min Rain = 0
KJU1 140341Z 17004KT 06/M03 A30 RMK A01 T00621026  RH  053%=      5-min Rain = 0
KJU1 140342Z 16003KT 06/M03 A30 RMK A01 T00621025  RH  054%=      5-min Rain = 0
KJU1 140343Z 17004KT 06/M03 A30 RMK A01 T00621025  RH  054%=      5-min Rain = 0
KJU1 140344Z 17004KT 06/M03 A3001 RMK A01 T00621025  RH  054%=      5-min Rain = 0
KJU1 140345Z 18004KT 06/M03 A3001 RMK A01 T00611026  RH  054%=      5-min Rain = 0
KJU1 140346Z 18004KT 06/M03 A3001 RMK A01 T00611025  RH  054%=      5-min Rain = 0
KJU1 140347Z 18004KT 06/M03 A3001 RMK A01 T00621025  RH  054%=      5-min Rain = 0
KJU1 140348Z 18006KT 06/M03 A3001 RMK A01 T00621026  RH  053%=      5-min Rain = 0
KJU1 140349Z 18005KT 06/M03 A30 RMK A01 T00611026  RH  054%=      5-min Rain = 0
KJU1 140350Z 19005KT 06/M03 A3001 RMK A01 T00621025  RH  054%=      5-min Rain = 0
KJU1 140351Z 19006KT 06/M03 A3001 RMK A01 T00621025  RH  053%=      5-min Rain = 0
KJU1 140352Z 19005KT 06/M03 A3001 RMK A01 T00631025  RH  054%=      5-min Rain = 0
KJU1 140353Z 19005KT 06/M03 A3001 RMK A01 T00621025  RH  054%=      5-min Rain = 0
KJU1 140354Z 19005KT 06/M03 A3001 RMK A01 T00601025  RH  054%=      5-min Rain = 0
KJU1 140355Z 19005KT 06/M03 A3001 RMK A01 T00591026  RH  054%=      5-min Rain = 0
KJU1 140356Z 19005KT 06/M03 A3001 RMK A01 T00571028  RH  054%=      5-min Rain = 0
KJU1 140357Z 19005KT 06/M03 A3001 RMK A01 T00561027  RH  055%=      5-min Rain = 0
KJU1 140358Z 19005KT 06/M03 A3001 RMK A01 T00561027  RH  055%=      5-min Rain = 0
KJU1 140359Z 20005KT 06/M03 A3001 RMK A01 T00551026  RH  056%=      5-min Rain = 0
KJU1 140400Z 20005KT 06/M03 A3001 RMK A01 T00551026  RH  056%=      5-min Rain = 0
KJU1 140401Z 20005KT 05/M03 A3001 RMK A01 T00541026  RH  056%=      5-min Rain = 0
KJU1 140402Z 19005KT 05/M03 A3001 RMK A01 T00541026  RH  056%=      5-min Rain = 0
KJU1 140403Z 19005KT 05/M03 A3001 RMK A01 T00541026  RH  056%=      5-min Rain = 0
KJU1 140404Z 19005KT 05/M03 A3001 RMK A01 T00541026  RH  056%=      5-min Rain = 0
KJU1 140405Z 19005KT 05/M03 A3001 RMK A01 T00531027  RH  057%=      5-min Rain = 0
KJU1 140406Z 19005KT 05/M03 A3001 RMK A01 T00511027  RH  057%=      5-min Rain = 0
KJU1 140407Z 19006KT 05/M03 A3001 RMK A01 T00501027  RH  057%=      5-min Rain = 0
KJU1 140408Z 19005KT 05/M03 A3001 RMK A01 T00501026  RH  058%=      5-min Rain = 0
KJU1 140409Z 19006KT 05/M03 A3001 RMK A01 T00491026  RH  058%=      5-min Rain = 0
KJU1 140410Z 19006KT 05/M03 A3001 RMK A01 T00491026  RH  058%=      5-min Rain = 0
KJU1 140411Z 18006KT 05/M03 A3001 RMK A01 T00491025  RH  059%=      5-min Rain = 0
KJU1 140412Z 19006KT 05/M03 A3001 RMK A01 T00491025  RH  059%=      5-min Rain = 0
KJU1 140413Z 18006KT 05/M03 A3001 RMK A01 T00491025  RH  059%=      5-min Rain = 0
KJU1 140414Z 19006KT 05/M03 A3001 RMK A01 T00491025  RH  059%=      5-min Rain = 0
KJU1 140415Z 19006KT 05/M02 A3001 RMK A01 T00491024  RH  059%=      5-min Rain = 0
KJU1 140416Z 19006KT 05/M02 A3001 RMK A01 T00501023  RH  059%=      5-min Rain = 0
KJU1 140417Z 18006KT 05/M02 A3001 RMK A01 T00501023  RH  059%=      5-min Rain = 0
KJU1 140418Z 19006KT 05/M02 A30 RMK A01 T00511023  RH  059%=      5-min Rain = 0
KJU1 140419Z 19006KT 05/M02 A30 RMK A01 T00521022  RH  059%=      5-min Rain = 0
KJU1 140420Z 19005KT 05/M02 A30 RMK A01 T00531023  RH  058%=      5-min Rain = 0
KJU1 140421Z 18005KT 05/M02 A30 RMK A01 T00531023  RH  058%=      5-min Rain = 0
KJU1 140422Z 18006KT 05/M02 A30 RMK A01 T00531023  RH  058%=      5-min Rain = 0
KJU1 140423Z 18005KT 05/M02 A30 RMK A01 T00531023  RH  058%=      5-min Rain = 0
KJU1 140424Z 18005KT 05/M02 A30 RMK A01 T00531023  RH  058%=      5-min Rain = 0
KJU1 140425Z 18005KT 05/M02 A30 RMK A01 T00521023  RH  058%=      5-min Rain = 0
KJU1 140426Z 18005KT 05/M02 A30 RMK A01 T00511024  RH  058%=      5-min Rain = 0
KJU1 140427Z 18005KT 05/M02 A30 RMK A01 T00511023  RH  059%=      5-min Rain = 0
KJU1 140428Z 19005KT 05/M02 A30 RMK A01 T00511023  RH  059%=      5-min Rain = 0
KJU1 140429Z 18005KT 05/M02 A30 RMK A01 T00511023  RH  059%=      5-min Rain = 0
KJU1 140430Z 18005KT 05/M02 A30 RMK A01 T00511024  RH  058%=      5-min Rain = 0
KJU1 140431Z 17006KT 05/M02 A30 RMK A01 T00501024  RH  058%=      5-min Rain = 0
KJU1 140432Z 18006KT 05/M02 A30 RMK A01 T00491024  RH  059%=      5-min Rain = 0
KJU1 140433Z 18005KT 05/M02 A30 RMK A01 T00491023  RH  059%=      5-min Rain = 0
KJU1 140434Z 18005KT 05/M02 A30 RMK A01 T00491024  RH  059%=      5-min Rain = 0
KJU1 140435Z 18006KT 05/M02 A30 RMK A01 T00481024  RH  060%=      5-min Rain = 0
KJU1 140436Z 18004KT 05/M02 A30 RMK A01 T00471024  RH  060%=      5-min Rain = 0
KJU1 140437Z 19005KT 05/M02 A30 RMK A01 T00461024  RH  061%=      5-min Rain = 0
KJU1 140438Z 18004KT 05/M02 A30 RMK A01 T00461023  RH  061%=      5-min Rain = 0
KJU1 140439Z 19004KT 05/M02 A30 RMK A01 T00461023  RH  061%=      5-min Rain = 0
KJU1 140440Z 19005KT 05/M02 A30 RMK A01 T00461024  RH  061%=      5-min Rain = 0
KJU1 140441Z 19005KT 05/M02 A30 RMK A01 T00461024  RH  060%=      5-min Rain = 0
KJU1 140442Z 19005KT 05/M02 A30 RMK A01 T00461024  RH  061%=      5-min Rain = 0
KJU1 140443Z 19006KT 05/M02 A30 RMK A01 T00461024  RH  061%=      5-min Rain = 0
KJU1 140444Z 18006KT 05/M02 A30 RMK A01 T00461024  RH  061%=      5-min Rain = 0
KJU1 140445Z 18006KT 05/M02 A30 RMK A01 T00461024  RH  061%=      5-min Rain = 0
KJU1 140446Z 19006KT 05/M02 A30 RMK A01 T00461024  RH  061%=      5-min Rain = 0
KJU1 140447Z 19005KT 05/M02 A30 RMK A01 T00461023  RH  061%=      5-min Rain = 0
KJU1 140448Z 19006KT 05/M02 A30 RMK A01 T00461023  RH  061%=      5-min Rain = 0
KJU1 140449Z 19006KT 05/M02 A30 RMK A01 T00461023  RH  061%=      5-min Rain = 0
KJU1 140450Z 19005KT 05/M02 A30 RMK A01 T00461023  RH  061%=      5-min Rain = 0
KJU1 140451Z 19004KT 05/M02 A30 RMK A01 T00461023  RH  061%=      5-min Rain = 0
KJU1 140452Z 19004KT 05/M02 A30 RMK A01 T00461022  RH  061%=      5-min Rain = 0
KJU1 140453Z 19005KT 05/M02 A30 RMK A01 T00451023  RH  061%=      5-min Rain = 0
KJU1 140454Z 19004KT 05/M02 A30 RMK A01 T00461022  RH  061%=      5-min Rain = 0
KJU1 140455Z 19005KT 05/M02 A30 RMK A01 T00461022  RH  061%=      5-min Rain = 0
KJU1 140456Z 19004KT 05/M02 A30 RMK A01 T00461022  RH  061%=      5-min Rain = 0
KJU1 140457Z 19004KT 05/M02 A30 RMK A01 T00451023  RH  061%=      5-min Rain = 0
KJU1 140458Z 19004KT 05/M02 A30 RMK A01 T00451023  RH  062%=      5-min Rain = 0
KJU1 140459Z 19004KT 04/M02 A30 RMK A01 T00441023  RH  062%=      5-min Rain = 0
KJU1 140500Z 19004KT 04/M02 A30 RMK A01 T00441023  RH  062%=      5-min Rain = 0
KJU1 140501Z 18004KT 04/M02 A30 RMK A01 T00441023  RH  062%=      5-min Rain = 0
KJU1 140502Z 19004KT 04/M02 A30 RMK A01 T00441023  RH  062%=      5-min Rain = 0
KJU1 140503Z 18005KT 04/M02 A30 RMK A01 T00441022  RH  062%=      5-min Rain = 0
KJU1 140504Z 18005KT 04/M02 A30 RMK A01 T00431023  RH  062%=      5-min Rain = 0
KJU1 140505Z 19005KT 04/M02 A30 RMK A01 T00441022  RH  062%=      5-min Rain = 0
KJU1 140506Z 19005KT 04/M02 A30 RMK A01 T00431022  RH  062%=      5-min Rain = 0
KJU1 140507Z 18005KT 04/M02 A30 RMK A01 T00431022  RH  062%=      5-min Rain = 0
KJU1 140508Z 19006KT 04/M02 A30 RMK A01 T00421023  RH  063%=      5-min Rain = 0
KJU1 140509Z 19005KT 04/M02 A30 RMK A01 T00421022  RH  063%=      5-min Rain = 0
KJU1 140510Z 19006KT 04/M02 A30 RMK A01 T00421022  RH  063%=      5-min Rain = 0
KJU1 140511Z 19005KT 04/M02 A30 RMK A01 T00431022  RH  063%=      5-min Rain = 0
KJU1 140512Z 19006KT 04/M02 A30 RMK A01 T00431022  RH  063%=      5-min Rain = 0
KJU1 140513Z 19006KT 04/M02 A30 RMK A01 T00421022  RH  063%=      5-min Rain = 0
KJU1 140514Z 19006KT 04/M02 A30 RMK A01 T00431022  RH  063%=      5-min Rain = 0
KJU1 140515Z 19006KT 04/M02 A30 RMK A01 T00431022  RH  063%=      5-min Rain = 0
KJU1 140516Z 19006KT 04/M02 A30 RMK A01 T00431021  RH  063%=      5-min Rain = 0
KJU1 140517Z 19006KT 04/M02 A30 RMK A01 T00441020  RH  063%=      5-min Rain = 0
KJU1 140518Z 19006KT 05/M02 A30 RMK A01 T00461020  RH  062%=      5-min Rain = 0
KJU1 140519Z 20006KT 05/M02 A30 RMK A01 T00461020  RH  062%=      5-min Rain = 0
KJU1 140520Z 19006KT 05/M02 A30 RMK A01 T00461021  RH  062%=      5-min Rain = 0
KJU1 140521Z 19005KT 05/M02 A30 RMK A01 T00461021  RH  062%=      5-min Rain = 0
KJU1 140522Z 19006KT 05/M02 A2999 RMK A01 T00461021  RH  062%=      5-min Rain = 0
KJU1 140523Z 20005KT 05/M02 A30 RMK A01 T00461021  RH  062%=      5-min Rain = 0
KJU1 140524Z 20005KT 05/M02 A30 RMK A01 T00461021  RH  062%=      5-min Rain = 0
KJU1 140525Z 19005KT 05/M02 A2999 RMK A01 T00461021  RH  062%=      5-min Rain = 0
KJU1 140526Z 19006KT 05/M02 A2999 RMK A01 T00451021  RH  062%=      5-min Rain = 0
KJU1 140527Z 19006KT 05/M02 A2999 RMK A01 T00451021  RH  062%=      5-min Rain = 0
KJU1 140528Z 19006KT 04/M02 A2999 RMK A01 T00441021  RH  062%=      5-min Rain = 0
KJU1 140529Z 19006KT 04/M02 A2999 RMK A01 T00441021  RH  062%=      5-min Rain = 0
KJU1 140530Z 18006KT 04/M02 A2999 RMK A01 T00441022  RH  062%=      5-min Rain = 0
KJU1 140531Z 18007KT 04/M02 A2999 RMK A01 T00441022  RH  062%=      5-min Rain = 0
KJU1 140532Z 18006KT 04/M02 A2999 RMK A01 T00441021  RH  062%=      5-min Rain = 0
KJU1 140533Z 18006KT 04/M02 A2999 RMK A01 T00441022  RH  062%=      5-min Rain = 0
KJU1 140534Z 18005KT 04/M02 A2999 RMK A01 T00431022  RH  062%=      5-min Rain = 0
KJU1 140535Z 19006KT 04/M02 A2999 RMK A01 T00431023  RH  063%=      5-min Rain = 0
KJU1 140536Z 19006KT 04/M02 A2999 RMK A01 T00421023  RH  063%=      5-min Rain = 0
KJU1 140537Z 18006KT 04/M02 A2999 RMK A01 T00411022  RH  063%=      5-min Rain = 0
KJU1 140538Z 19005KT 04/M02 A2999 RMK A01 T00411022  RH  063%=      5-min Rain = 0
KJU1 140539Z 18005KT 04/M02 A2999 RMK A01 T00401023  RH  064%=      5-min Rain = 0
KJU1 140540Z 19005KT 04/M02 A2999 RMK A01 T00401022  RH  064%=      5-min Rain = 0
KJU1 140541Z 19005KT 04/M02 A2999 RMK A01 T00401022  RH  064%=      5-min Rain = 0
KJU1 140542Z 19005KT 04/M02 A2999 RMK A01 T00401023  RH  064%=      5-min Rain = 0
KJU1 140543Z 19005KT 04/M02 A2999 RMK A01 T00391023  RH  064%=      5-min Rain = 0
KJU1 140544Z 19005KT 04/M02 A2999 RMK A01 T00391023  RH  064%=      5-min Rain = 0
KJU1 140545Z 19005KT 04/M02 A2999 RMK A01 T00381023  RH  064%=      5-min Rain = 0
KJU1 140546Z 19006KT 04/M02 A2999 RMK A01 T00371023  RH  065%=      5-min Rain = 0
KJU1 140547Z 19005KT 04/M02 A2999 RMK A01 T00381022  RH  065%=      5-min Rain = 0
KJU1 140548Z 18005KT 04/M02 A2999 RMK A01 T00381022  RH  065%=      5-min Rain = 0
KJU1 140549Z 18006KT 04/M02 A2999 RMK A01 T00381023  RH  065%=      5-min Rain = 0
KJU1 140550Z 18006KT 04/M02 A2999 RMK A01 T00381023  RH  065%=      5-min Rain = 0
KJU1 140551Z 18006KT 04/M02 A2999 RMK A01 T00381022  RH  065%=      5-min Rain = 0
KJU1 140552Z 18006KT 04/M02 A2999 RMK A01 T00381022  RH  065%=      5-min Rain = 0
KJU1 140553Z 18005KT 04/M02 A2998 RMK A01 T00381022  RH  065%=      5-min Rain = 0
KJU1 140554Z 18006KT 04/M02 A2998 RMK A01 T00381022  RH  065%=      5-min Rain = 0
KJU1 140555Z 18007KT 04/M02 A2998 RMK A01 T00371022  RH  065%=      5-min Rain = 0
KJU1 140556Z 19006KT 04/M02 A2998 RMK A01 T00381021  RH  065%=      5-min Rain = 0
KJU1 140557Z 18007KT 04/M02 A2998 RMK A01 T00381021  RH  065%=      5-min Rain = 0
KJU1 140558Z 19006KT 04/M02 A2998 RMK A01 T00381021  RH  065%=      5-min Rain = 0
KJU1 140559Z 19006KT 04/M02 A2998 RMK A01 T00381021  RH  065%=      5-min Rain = 0

Page generated in 0.2122 seconds.